<?xml version="1.0" encoding="UTF-8" standalone="no" ?>
<gpx xmlns="http://www.topografix.com/GPX/1/1" xmlns:xsi="http://www.w3.org/2001/XMLSchema-instance" xsi:schemaLocation="http://www.topografix.com/GPX/1/1 http://www.topografix.com/GPX/1/1/gpx.xsd" version="1.1" creator="VisuGPX - https://www.visugpx.com">
  <metadata>
    <name>RANDO LAVAUDIEU BILLANGES 10 KM</name>
    <desc><![CDATA[RANDO LAVAUDIEU BILLANGES 10 KM.DEPART ARRIVEE LAVAUDIEU .BILLANGES.LUGEAC]]></desc>
  </metadata>
  <trk>
    <name><![CDATA[28-MARS-21 16:22:32]]></name>
    <extensions>
      <line xmlns="http://www.topografix.com/GPX/gpx_style/0/2">
        <color>0000FF</color>
        <width>4</width>
      </line>
    </extensions>
    <trkseg>
      <trkpt lat="45.26359" lon="3.45734">
        <ele>239.99</ele>
        <time>2021-03-28T12:02:24Z</time>
      </trkpt>
      <trkpt lat="45.26351" lon="3.45739">
        <ele>256.81</ele>
        <time>2021-03-28T12:02:34Z</time>
      </trkpt>
      <trkpt lat="45.2634" lon="3.45762">
        <ele>306.32</ele>
        <time>2021-03-28T12:02:51Z</time>
      </trkpt>
      <trkpt lat="45.26341" lon="3.4574">
        <ele>341.89</ele>
        <time>2021-03-28T12:03:05Z</time>
      </trkpt>
      <trkpt lat="45.26335" lon="3.45722">
        <ele>356.79</ele>
        <time>2021-03-28T12:03:22Z</time>
      </trkpt>
      <trkpt lat="45.26328" lon="3.45714">
        <ele>362.07</ele>
        <time>2021-03-28T12:03:33Z</time>
      </trkpt>
      <trkpt lat="45.26317" lon="3.45695">
        <ele>375.05</ele>
        <time>2021-03-28T12:03:51Z</time>
      </trkpt>
      <trkpt lat="45.2631" lon="3.45682">
        <ele>377.94</ele>
        <time>2021-03-28T12:04:03Z</time>
      </trkpt>
      <trkpt lat="45.2631" lon="3.45677">
        <ele>377.94</ele>
        <time>2021-03-28T12:04:07Z</time>
      </trkpt>
      <trkpt lat="45.2631" lon="3.4567">
        <ele>379.86</ele>
        <time>2021-03-28T12:04:10Z</time>
      </trkpt>
      <trkpt lat="45.26312" lon="3.45662">
        <ele>380.82</ele>
        <time>2021-03-28T12:04:15Z</time>
      </trkpt>
      <trkpt lat="45.26316" lon="3.45652">
        <ele>381.3</ele>
        <time>2021-03-28T12:04:24Z</time>
      </trkpt>
      <trkpt lat="45.26317" lon="3.45633">
        <ele>383.22</ele>
        <time>2021-03-28T12:04:37Z</time>
      </trkpt>
      <trkpt lat="45.26316" lon="3.45621">
        <ele>383.7</ele>
        <time>2021-03-28T12:04:45Z</time>
      </trkpt>
      <trkpt lat="45.26313" lon="3.45607">
        <ele>384.18</ele>
        <time>2021-03-28T12:04:56Z</time>
      </trkpt>
      <trkpt lat="45.26309" lon="3.45593">
        <ele>385.63</ele>
        <time>2021-03-28T12:05:06Z</time>
      </trkpt>
      <trkpt lat="45.26307" lon="3.45588">
        <ele>386.11</ele>
        <time>2021-03-28T12:05:09Z</time>
      </trkpt>
      <trkpt lat="45.26304" lon="3.45584">
        <ele>387.07</ele>
        <time>2021-03-28T12:05:13Z</time>
      </trkpt>
      <trkpt lat="45.26299" lon="3.45576">
        <ele>388.51</ele>
        <time>2021-03-28T12:05:20Z</time>
      </trkpt>
      <trkpt lat="45.26291" lon="3.45567">
        <ele>390.43</ele>
        <time>2021-03-28T12:05:31Z</time>
      </trkpt>
      <trkpt lat="45.26286" lon="3.4556">
        <ele>391.39</ele>
        <time>2021-03-28T12:05:43Z</time>
      </trkpt>
      <trkpt lat="45.26277" lon="3.45545">
        <ele>393.8</ele>
        <time>2021-03-28T12:05:56Z</time>
      </trkpt>
      <trkpt lat="45.26268" lon="3.45539">
        <ele>396.68</ele>
        <time>2021-03-28T12:06:09Z</time>
      </trkpt>
      <trkpt lat="45.26263" lon="3.45527">
        <ele>398.12</ele>
        <time>2021-03-28T12:06:20Z</time>
      </trkpt>
      <trkpt lat="45.26257" lon="3.45515">
        <ele>398.6</ele>
        <time>2021-03-28T12:06:27Z</time>
      </trkpt>
      <trkpt lat="45.26257" lon="3.45508">
        <ele>399.57</ele>
        <time>2021-03-28T12:06:32Z</time>
      </trkpt>
      <trkpt lat="45.26255" lon="3.45489">
        <ele>402.93</ele>
        <time>2021-03-28T12:06:46Z</time>
      </trkpt>
      <trkpt lat="45.26251" lon="3.45471">
        <ele>406.77</ele>
        <time>2021-03-28T12:06:57Z</time>
      </trkpt>
      <trkpt lat="45.26246" lon="3.45463">
        <ele>407.74</ele>
        <time>2021-03-28T12:07:07Z</time>
      </trkpt>
      <trkpt lat="45.2624" lon="3.45455">
        <ele>408.22</ele>
        <time>2021-03-28T12:07:17Z</time>
      </trkpt>
      <trkpt lat="45.26234" lon="3.4545">
        <ele>409.18</ele>
        <time>2021-03-28T12:07:25Z</time>
      </trkpt>
      <trkpt lat="45.26227" lon="3.45443">
        <ele>409.66</ele>
        <time>2021-03-28T12:07:33Z</time>
      </trkpt>
      <trkpt lat="45.2622" lon="3.45436">
        <ele>406.29</ele>
        <time>2021-03-28T12:07:43Z</time>
      </trkpt>
      <trkpt lat="45.26211" lon="3.45433">
        <ele>406.29</ele>
        <time>2021-03-28T12:07:55Z</time>
      </trkpt>
      <trkpt lat="45.26196" lon="3.4544">
        <ele>406.29</ele>
        <time>2021-03-28T12:08:11Z</time>
      </trkpt>
      <trkpt lat="45.26195" lon="3.4544">
        <ele>406.29</ele>
        <time>2021-03-28T12:08:28Z</time>
      </trkpt>
      <trkpt lat="45.26177" lon="3.45457">
        <ele>406.29</ele>
        <time>2021-03-28T12:08:55Z</time>
      </trkpt>
      <trkpt lat="45.2616" lon="3.45437">
        <ele>407.26</ele>
        <time>2021-03-28T12:09:14Z</time>
      </trkpt>
      <trkpt lat="45.26139" lon="3.45427">
        <ele>407.26</ele>
        <time>2021-03-28T12:10:03Z</time>
      </trkpt>
      <trkpt lat="45.26112" lon="3.45434">
        <ele>405.81</ele>
        <time>2021-03-28T12:10:24Z</time>
      </trkpt>
      <trkpt lat="45.26105" lon="3.4545">
        <ele>403.41</ele>
        <time>2021-03-28T12:10:40Z</time>
      </trkpt>
      <trkpt lat="45.261" lon="3.45457">
        <ele>396.2</ele>
        <time>2021-03-28T12:11:02Z</time>
      </trkpt>
      <trkpt lat="45.26098" lon="3.45463">
        <ele>391.87</ele>
        <time>2021-03-28T12:11:22Z</time>
      </trkpt>
      <trkpt lat="45.26106" lon="3.4546">
        <ele>391.87</ele>
        <time>2021-03-28T12:11:50Z</time>
      </trkpt>
      <trkpt lat="45.26113" lon="3.45459">
        <ele>391.87</ele>
        <time>2021-03-28T12:12:16Z</time>
      </trkpt>
      <trkpt lat="45.26119" lon="3.4546">
        <ele>390.43</ele>
        <time>2021-03-28T12:12:40Z</time>
      </trkpt>
      <trkpt lat="45.26121" lon="3.45458">
        <ele>392.36</ele>
        <time>2021-03-28T12:13:05Z</time>
      </trkpt>
      <trkpt lat="45.26122" lon="3.45455">
        <ele>394.28</ele>
        <time>2021-03-28T12:13:30Z</time>
      </trkpt>
      <trkpt lat="45.26124" lon="3.45454">
        <ele>398.12</ele>
        <time>2021-03-28T12:13:51Z</time>
      </trkpt>
      <trkpt lat="45.26123" lon="3.45453">
        <ele>399.57</ele>
        <time>2021-03-28T12:14:14Z</time>
      </trkpt>
      <trkpt lat="45.26123" lon="3.45453">
        <ele>400.05</ele>
        <time>2021-03-28T12:14:15Z</time>
      </trkpt>
      <trkpt lat="45.26125" lon="3.45451">
        <ele>411.1</ele>
        <time>2021-03-28T12:14:28Z</time>
      </trkpt>
      <trkpt lat="45.26129" lon="3.45446">
        <ele>412.54</ele>
        <time>2021-03-28T12:14:49Z</time>
      </trkpt>
      <trkpt lat="45.2614" lon="3.45432">
        <ele>414.47</ele>
        <time>2021-03-28T12:15:08Z</time>
      </trkpt>
      <trkpt lat="45.26142" lon="3.4543">
        <ele>414.47</ele>
        <time>2021-03-28T12:15:10Z</time>
      </trkpt>
      <trkpt lat="45.26147" lon="3.45412">
        <ele>415.91</ele>
        <time>2021-03-28T12:15:29Z</time>
      </trkpt>
      <trkpt lat="45.26147" lon="3.45406">
        <ele>416.39</ele>
        <time>2021-03-28T12:15:35Z</time>
      </trkpt>
      <trkpt lat="45.26147" lon="3.45397">
        <ele>421.19</ele>
        <time>2021-03-28T12:15:39Z</time>
      </trkpt>
      <trkpt lat="45.26156" lon="3.45387">
        <ele>428.4</ele>
        <time>2021-03-28T12:15:50Z</time>
      </trkpt>
      <trkpt lat="45.26159" lon="3.45383">
        <ele>430.81</ele>
        <time>2021-03-28T12:16:04Z</time>
      </trkpt>
      <trkpt lat="45.26166" lon="3.45374">
        <ele>434.65</ele>
        <time>2021-03-28T12:16:13Z</time>
      </trkpt>
      <trkpt lat="45.26169" lon="3.45346">
        <ele>435.61</ele>
        <time>2021-03-28T12:16:27Z</time>
      </trkpt>
      <trkpt lat="45.26169" lon="3.45343">
        <ele>435.61</ele>
        <time>2021-03-28T12:16:30Z</time>
      </trkpt>
      <trkpt lat="45.26171" lon="3.45338">
        <ele>436.1</ele>
        <time>2021-03-28T12:16:41Z</time>
      </trkpt>
      <trkpt lat="45.26177" lon="3.45333">
        <ele>437.06</ele>
        <time>2021-03-28T12:16:49Z</time>
      </trkpt>
      <trkpt lat="45.26186" lon="3.45328">
        <ele>441.86</ele>
        <time>2021-03-28T12:16:58Z</time>
      </trkpt>
      <trkpt lat="45.26198" lon="3.45334">
        <ele>444.27</ele>
        <time>2021-03-28T12:17:11Z</time>
      </trkpt>
      <trkpt lat="45.26209" lon="3.45343">
        <ele>445.23</ele>
        <time>2021-03-28T12:17:25Z</time>
      </trkpt>
      <trkpt lat="45.26209" lon="3.45344">
        <ele>445.71</ele>
        <time>2021-03-28T12:17:26Z</time>
      </trkpt>
      <trkpt lat="45.2621" lon="3.45349">
        <ele>446.19</ele>
        <time>2021-03-28T12:17:30Z</time>
      </trkpt>
      <trkpt lat="45.26212" lon="3.45366">
        <ele>445.23</ele>
        <time>2021-03-28T12:17:40Z</time>
      </trkpt>
      <trkpt lat="45.26225" lon="3.45389">
        <ele>442.34</ele>
        <time>2021-03-28T12:17:57Z</time>
      </trkpt>
      <trkpt lat="45.2624" lon="3.45391">
        <ele>444.27</ele>
        <time>2021-03-28T12:18:10Z</time>
      </trkpt>
      <trkpt lat="45.26243" lon="3.45393">
        <ele>444.75</ele>
        <time>2021-03-28T12:18:13Z</time>
      </trkpt>
      <trkpt lat="45.26249" lon="3.45393">
        <ele>446.19</ele>
        <time>2021-03-28T12:18:19Z</time>
      </trkpt>
      <trkpt lat="45.26254" lon="3.45389">
        <ele>446.67</ele>
        <time>2021-03-28T12:18:25Z</time>
      </trkpt>
      <trkpt lat="45.26266" lon="3.45382">
        <ele>448.11</ele>
        <time>2021-03-28T12:18:35Z</time>
      </trkpt>
      <trkpt lat="45.26269" lon="3.45382">
        <ele>453.4</ele>
        <time>2021-03-28T12:18:43Z</time>
      </trkpt>
      <trkpt lat="45.26278" lon="3.45376">
        <ele>480.7</ele>
      </trkpt>
      <trkpt lat="45.26289" lon="3.4537">
        <ele>481.6</ele>
      </trkpt>
      <trkpt lat="45.26302" lon="3.45369">
        <ele>482.7</ele>
      </trkpt>
      <trkpt lat="45.26306" lon="3.45373">
        <ele>482.9</ele>
      </trkpt>
      <trkpt lat="45.26311" lon="3.45385">
        <ele>483.1</ele>
      </trkpt>
      <trkpt lat="45.26312" lon="3.45385">
        <ele>483.1</ele>
      </trkpt>
      <trkpt lat="45.26315" lon="3.45384">
        <ele>483.4</ele>
      </trkpt>
      <trkpt lat="45.2633" lon="3.45403">
        <ele>484.1</ele>
      </trkpt>
      <trkpt lat="45.2633" lon="3.45404">
        <ele>484.1</ele>
      </trkpt>
      <trkpt lat="45.26332" lon="3.45405">
        <ele>484.2</ele>
      </trkpt>
      <trkpt lat="45.26348" lon="3.45401">
        <ele>487.7</ele>
      </trkpt>
      <trkpt lat="45.26373" lon="3.45369">
        <ele>492.8</ele>
      </trkpt>
      <trkpt lat="45.26372" lon="3.45373">
        <ele>492.6</ele>
      </trkpt>
      <trkpt lat="45.26373" lon="3.45369">
        <ele>492.8</ele>
      </trkpt>
      <trkpt lat="45.26387" lon="3.45352">
        <ele>494.9</ele>
      </trkpt>
      <trkpt lat="45.26423" lon="3.45324">
        <ele>500.1</ele>
      </trkpt>
      <trkpt lat="45.26454" lon="3.45307">
        <ele>506</ele>
      </trkpt>
      <trkpt lat="45.26476" lon="3.45289">
        <ele>508.8</ele>
      </trkpt>
      <trkpt lat="45.26497" lon="3.45263">
        <ele>509.4</ele>
      </trkpt>
      <trkpt lat="45.26508" lon="3.45243">
        <ele>509.7</ele>
      </trkpt>
      <trkpt lat="45.26529" lon="3.45186">
        <ele>512.4</ele>
      </trkpt>
      <trkpt lat="45.26491" lon="3.45064">
        <ele>511.08</ele>
        <time>2021-03-28T12:26:23Z</time>
      </trkpt>
      <trkpt lat="45.26478" lon="3.45042">
        <ele>512.04</ele>
        <time>2021-03-28T12:26:43Z</time>
      </trkpt>
      <trkpt lat="45.26462" lon="3.45023">
        <ele>513</ele>
        <time>2021-03-28T12:27:02Z</time>
      </trkpt>
      <trkpt lat="45.26441" lon="3.45002">
        <ele>513</ele>
        <time>2021-03-28T12:27:23Z</time>
      </trkpt>
      <trkpt lat="45.26423" lon="3.44987">
        <ele>513</ele>
        <time>2021-03-28T12:27:42Z</time>
      </trkpt>
      <trkpt lat="45.26403" lon="3.44963">
        <ele>514.92</ele>
        <time>2021-03-28T12:28:01Z</time>
      </trkpt>
      <trkpt lat="45.26403" lon="3.44962">
        <ele>514.92</ele>
        <time>2021-03-28T12:28:02Z</time>
      </trkpt>
      <trkpt lat="45.264" lon="3.44958">
        <ele>514.44</ele>
        <time>2021-03-28T12:28:07Z</time>
      </trkpt>
      <trkpt lat="45.26389" lon="3.44946">
        <ele>515.88</ele>
        <time>2021-03-28T12:28:17Z</time>
      </trkpt>
      <trkpt lat="45.26382" lon="3.44937">
        <ele>517.33</ele>
        <time>2021-03-28T12:28:25Z</time>
      </trkpt>
      <trkpt lat="45.26373" lon="3.44926">
        <ele>517.81</ele>
        <time>2021-03-28T12:28:35Z</time>
      </trkpt>
      <trkpt lat="45.26365" lon="3.44915">
        <ele>517.81</ele>
        <time>2021-03-28T12:28:44Z</time>
      </trkpt>
      <trkpt lat="45.26357" lon="3.44903">
        <ele>517.33</ele>
        <time>2021-03-28T12:28:54Z</time>
      </trkpt>
      <trkpt lat="45.26355" lon="3.44892">
        <ele>520.21</ele>
        <time>2021-03-28T12:29:03Z</time>
      </trkpt>
      <trkpt lat="45.26347" lon="3.44878">
        <ele>522.61</ele>
        <time>2021-03-28T12:29:12Z</time>
      </trkpt>
      <trkpt lat="45.26341" lon="3.4487">
        <ele>524.54</ele>
        <time>2021-03-28T12:29:20Z</time>
      </trkpt>
      <trkpt lat="45.26335" lon="3.44868">
        <ele>526.46</ele>
        <time>2021-03-28T12:29:35Z</time>
      </trkpt>
      <trkpt lat="45.26333" lon="3.4487">
        <ele>526.94</ele>
        <time>2021-03-28T12:29:47Z</time>
      </trkpt>
      <trkpt lat="45.26294" lon="3.44857">
        <ele>529.34</ele>
        <time>2021-03-28T12:30:07Z</time>
      </trkpt>
      <trkpt lat="45.26285" lon="3.44853">
        <ele>527.9</ele>
        <time>2021-03-28T12:30:16Z</time>
      </trkpt>
      <trkpt lat="45.26277" lon="3.44848">
        <ele>525.98</ele>
        <time>2021-03-28T12:30:23Z</time>
      </trkpt>
      <trkpt lat="45.26265" lon="3.44841">
        <ele>525.02</ele>
        <time>2021-03-28T12:30:32Z</time>
      </trkpt>
      <trkpt lat="45.26261" lon="3.44838">
        <ele>524.06</ele>
        <time>2021-03-28T12:30:36Z</time>
      </trkpt>
      <trkpt lat="45.26255" lon="3.44834">
        <ele>523.09</ele>
        <time>2021-03-28T12:30:42Z</time>
      </trkpt>
      <trkpt lat="45.26242" lon="3.44827">
        <ele>522.13</ele>
        <time>2021-03-28T12:30:56Z</time>
      </trkpt>
      <trkpt lat="45.2623" lon="3.44819">
        <ele>522.61</ele>
        <time>2021-03-28T12:31:07Z</time>
      </trkpt>
      <trkpt lat="45.26225" lon="3.44815">
        <ele>523.58</ele>
        <time>2021-03-28T12:31:12Z</time>
      </trkpt>
      <trkpt lat="45.26217" lon="3.44803">
        <ele>523.58</ele>
        <time>2021-03-28T12:31:22Z</time>
      </trkpt>
      <trkpt lat="45.26212" lon="3.44789">
        <ele>524.54</ele>
        <time>2021-03-28T12:31:32Z</time>
      </trkpt>
      <trkpt lat="45.26209" lon="3.44776">
        <ele>525.5</ele>
        <time>2021-03-28T12:31:41Z</time>
      </trkpt>
      <trkpt lat="45.26207" lon="3.44758">
        <ele>527.9</ele>
        <time>2021-03-28T12:31:55Z</time>
      </trkpt>
      <trkpt lat="45.26208" lon="3.44754">
        <ele>528.86</ele>
        <time>2021-03-28T12:31:59Z</time>
      </trkpt>
      <trkpt lat="45.26217" lon="3.44737">
        <ele>529.34</ele>
        <time>2021-03-28T12:32:12Z</time>
      </trkpt>
      <trkpt lat="45.26225" lon="3.44721">
        <ele>530.3</ele>
        <time>2021-03-28T12:32:27Z</time>
      </trkpt>
      <trkpt lat="45.26231" lon="3.44713">
        <ele>530.79</ele>
        <time>2021-03-28T12:32:38Z</time>
      </trkpt>
      <trkpt lat="45.26242" lon="3.447">
        <ele>532.71</ele>
        <time>2021-03-28T12:32:50Z</time>
      </trkpt>
      <trkpt lat="45.2625" lon="3.44689">
        <ele>532.71</ele>
        <time>2021-03-28T12:33:01Z</time>
      </trkpt>
      <trkpt lat="45.26258" lon="3.44682">
        <ele>532.23</ele>
        <time>2021-03-28T12:33:10Z</time>
      </trkpt>
      <trkpt lat="45.26263" lon="3.44677">
        <ele>531.75</ele>
        <time>2021-03-28T12:33:15Z</time>
      </trkpt>
      <trkpt lat="45.26268" lon="3.44673">
        <ele>531.75</ele>
        <time>2021-03-28T12:33:21Z</time>
      </trkpt>
      <trkpt lat="45.26281" lon="3.4466">
        <ele>533.67</ele>
        <time>2021-03-28T12:33:32Z</time>
      </trkpt>
      <trkpt lat="45.26292" lon="3.44644">
        <ele>533.67</ele>
        <time>2021-03-28T12:33:44Z</time>
      </trkpt>
      <trkpt lat="45.26302" lon="3.44626">
        <ele>533.19</ele>
        <time>2021-03-28T12:33:56Z</time>
      </trkpt>
      <trkpt lat="45.26307" lon="3.44619">
        <ele>533.67</ele>
        <time>2021-03-28T12:34:01Z</time>
      </trkpt>
      <trkpt lat="45.2632" lon="3.44599">
        <ele>534.63</ele>
        <time>2021-03-28T12:34:16Z</time>
      </trkpt>
      <trkpt lat="45.26326" lon="3.44589">
        <ele>535.59</ele>
        <time>2021-03-28T12:34:27Z</time>
      </trkpt>
      <trkpt lat="45.26333" lon="3.44576">
        <ele>536.55</ele>
        <time>2021-03-28T12:34:38Z</time>
      </trkpt>
      <trkpt lat="45.26339" lon="3.44561">
        <ele>538.96</ele>
        <time>2021-03-28T12:34:50Z</time>
      </trkpt>
      <trkpt lat="45.26346" lon="3.44551">
        <ele>539.44</ele>
        <time>2021-03-28T12:35:02Z</time>
      </trkpt>
      <trkpt lat="45.26358" lon="3.44542">
        <ele>541.36</ele>
        <time>2021-03-28T12:35:17Z</time>
      </trkpt>
      <trkpt lat="45.26372" lon="3.44531">
        <ele>543.76</ele>
        <time>2021-03-28T12:35:30Z</time>
      </trkpt>
      <trkpt lat="45.26378" lon="3.44526">
        <ele>545.2</ele>
        <time>2021-03-28T12:35:43Z</time>
      </trkpt>
      <trkpt lat="45.26384" lon="3.44519">
        <ele>545.2</ele>
        <time>2021-03-28T12:36:00Z</time>
      </trkpt>
      <trkpt lat="45.26401" lon="3.44512">
        <ele>544.72</ele>
        <time>2021-03-28T12:36:24Z</time>
      </trkpt>
      <trkpt lat="45.26423" lon="3.44522">
        <ele>542.8</ele>
        <time>2021-03-28T12:36:44Z</time>
      </trkpt>
      <trkpt lat="45.26441" lon="3.4452">
        <ele>542.8</ele>
        <time>2021-03-28T12:37:05Z</time>
      </trkpt>
      <trkpt lat="45.26443" lon="3.4452">
        <ele>542.8</ele>
        <time>2021-03-28T12:37:06Z</time>
      </trkpt>
      <trkpt lat="45.26479" lon="3.4452">
        <ele>543.28</ele>
        <time>2021-03-28T12:37:27Z</time>
      </trkpt>
      <trkpt lat="45.26492" lon="3.44513">
        <ele>539.92</ele>
        <time>2021-03-28T12:37:48Z</time>
      </trkpt>
      <trkpt lat="45.26501" lon="3.44508">
        <ele>540.88</ele>
        <time>2021-03-28T12:38:02Z</time>
      </trkpt>
      <trkpt lat="45.26519" lon="3.44503">
        <ele>540.88</ele>
        <time>2021-03-28T12:38:18Z</time>
      </trkpt>
      <trkpt lat="45.26532" lon="3.44494">
        <ele>540.4</ele>
        <time>2021-03-28T12:38:33Z</time>
      </trkpt>
      <trkpt lat="45.26543" lon="3.44479">
        <ele>538.96</ele>
        <time>2021-03-28T12:38:47Z</time>
      </trkpt>
      <trkpt lat="45.26551" lon="3.44465">
        <ele>539.44</ele>
        <time>2021-03-28T12:38:58Z</time>
      </trkpt>
      <trkpt lat="45.2656" lon="3.44453">
        <ele>538.96</ele>
        <time>2021-03-28T12:39:07Z</time>
      </trkpt>
      <trkpt lat="45.26564" lon="3.44452">
        <ele>538.96</ele>
        <time>2021-03-28T12:39:13Z</time>
      </trkpt>
      <trkpt lat="45.26569" lon="3.4445">
        <ele>538.48</ele>
        <time>2021-03-28T12:39:26Z</time>
      </trkpt>
      <trkpt lat="45.26575" lon="3.44445">
        <ele>538.48</ele>
        <time>2021-03-28T12:39:35Z</time>
      </trkpt>
      <trkpt lat="45.26585" lon="3.44442">
        <ele>537.99</ele>
        <time>2021-03-28T12:39:46Z</time>
      </trkpt>
      <trkpt lat="45.26592" lon="3.44441">
        <ele>538.96</ele>
        <time>2021-03-28T12:39:57Z</time>
      </trkpt>
      <trkpt lat="45.26602" lon="3.4444">
        <ele>538.48</ele>
        <time>2021-03-28T12:40:05Z</time>
      </trkpt>
      <trkpt lat="45.26609" lon="3.44438">
        <ele>537.99</ele>
        <time>2021-03-28T12:40:09Z</time>
      </trkpt>
      <trkpt lat="45.26626" lon="3.44434">
        <ele>537.51</ele>
        <time>2021-03-28T12:40:21Z</time>
      </trkpt>
      <trkpt lat="45.26635" lon="3.44431">
        <ele>536.55</ele>
        <time>2021-03-28T12:40:29Z</time>
      </trkpt>
      <trkpt lat="45.26646" lon="3.44426">
        <ele>535.59</ele>
        <time>2021-03-28T12:40:37Z</time>
      </trkpt>
      <trkpt lat="45.26647" lon="3.44426">
        <ele>535.11</ele>
        <time>2021-03-28T12:40:38Z</time>
      </trkpt>
      <trkpt lat="45.26667" lon="3.44426">
        <ele>536.55</ele>
        <time>2021-03-28T12:40:53Z</time>
      </trkpt>
      <trkpt lat="45.26673" lon="3.44433">
        <ele>535.11</ele>
        <time>2021-03-28T12:41:01Z</time>
      </trkpt>
      <trkpt lat="45.26686" lon="3.44444">
        <ele>537.03</ele>
        <time>2021-03-28T12:41:14Z</time>
      </trkpt>
      <trkpt lat="45.26698" lon="3.44451">
        <ele>536.55</ele>
        <time>2021-03-28T12:41:26Z</time>
      </trkpt>
      <trkpt lat="45.267" lon="3.44451">
        <ele>536.55</ele>
        <time>2021-03-28T12:41:29Z</time>
      </trkpt>
      <trkpt lat="45.26714" lon="3.44459">
        <ele>537.99</ele>
        <time>2021-03-28T12:41:41Z</time>
      </trkpt>
      <trkpt lat="45.26722" lon="3.44463">
        <ele>538.48</ele>
        <time>2021-03-28T12:41:49Z</time>
      </trkpt>
      <trkpt lat="45.26726" lon="3.44467">
        <ele>537.99</ele>
        <time>2021-03-28T12:41:54Z</time>
      </trkpt>
      <trkpt lat="45.26728" lon="3.44473">
        <ele>537.99</ele>
        <time>2021-03-28T12:41:57Z</time>
      </trkpt>
      <trkpt lat="45.26731" lon="3.44475">
        <ele>538.48</ele>
        <time>2021-03-28T12:41:59Z</time>
      </trkpt>
      <trkpt lat="45.26744" lon="3.4448">
        <ele>537.99</ele>
        <time>2021-03-28T12:42:10Z</time>
      </trkpt>
      <trkpt lat="45.26747" lon="3.44483">
        <ele>537.03</ele>
        <time>2021-03-28T12:42:21Z</time>
      </trkpt>
      <trkpt lat="45.26751" lon="3.44484">
        <ele>537.03</ele>
        <time>2021-03-28T12:42:27Z</time>
      </trkpt>
      <trkpt lat="45.26762" lon="3.44491">
        <ele>536.55</ele>
        <time>2021-03-28T12:42:36Z</time>
      </trkpt>
      <trkpt lat="45.26772" lon="3.445">
        <ele>535.59</ele>
        <time>2021-03-28T12:42:45Z</time>
      </trkpt>
      <trkpt lat="45.26777" lon="3.44505">
        <ele>535.59</ele>
        <time>2021-03-28T12:42:52Z</time>
      </trkpt>
      <trkpt lat="45.26781" lon="3.44509">
        <ele>535.59</ele>
        <time>2021-03-28T12:42:59Z</time>
      </trkpt>
      <trkpt lat="45.26783" lon="3.44508">
        <ele>535.59</ele>
        <time>2021-03-28T12:43:01Z</time>
      </trkpt>
      <trkpt lat="45.26788" lon="3.44511">
        <ele>535.11</ele>
        <time>2021-03-28T12:43:05Z</time>
      </trkpt>
      <trkpt lat="45.26795" lon="3.44512">
        <ele>534.63</ele>
        <time>2021-03-28T12:43:11Z</time>
      </trkpt>
      <trkpt lat="45.26806" lon="3.44506">
        <ele>533.19</ele>
        <time>2021-03-28T12:43:20Z</time>
      </trkpt>
      <trkpt lat="45.26812" lon="3.44502">
        <ele>532.23</ele>
        <time>2021-03-28T12:43:27Z</time>
      </trkpt>
      <trkpt lat="45.2682" lon="3.44496">
        <ele>531.27</ele>
        <time>2021-03-28T12:43:34Z</time>
      </trkpt>
      <trkpt lat="45.2683" lon="3.44489">
        <ele>528.86</ele>
        <time>2021-03-28T12:43:43Z</time>
      </trkpt>
      <trkpt lat="45.2683" lon="3.44488">
        <ele>528.38</ele>
        <time>2021-03-28T12:43:46Z</time>
      </trkpt>
      <trkpt lat="45.26837" lon="3.44482">
        <ele>527.42</ele>
        <time>2021-03-28T12:43:52Z</time>
      </trkpt>
      <trkpt lat="45.26845" lon="3.4447">
        <ele>525.98</ele>
        <time>2021-03-28T12:44:02Z</time>
      </trkpt>
      <trkpt lat="45.26854" lon="3.44458">
        <ele>525.5</ele>
        <time>2021-03-28T12:44:12Z</time>
      </trkpt>
      <trkpt lat="45.26861" lon="3.44442">
        <ele>523.58</ele>
        <time>2021-03-28T12:44:26Z</time>
      </trkpt>
      <trkpt lat="45.26864" lon="3.44423">
        <ele>521.17</ele>
        <time>2021-03-28T12:44:39Z</time>
      </trkpt>
      <trkpt lat="45.26861" lon="3.44411">
        <ele>519.73</ele>
        <time>2021-03-28T12:44:47Z</time>
      </trkpt>
      <trkpt lat="45.26857" lon="3.44397">
        <ele>516.37</ele>
        <time>2021-03-28T12:44:58Z</time>
      </trkpt>
      <trkpt lat="45.26855" lon="3.44384">
        <ele>513.48</ele>
        <time>2021-03-28T12:45:06Z</time>
      </trkpt>
      <trkpt lat="45.2686" lon="3.44377">
        <ele>511.56</ele>
        <time>2021-03-28T12:45:13Z</time>
      </trkpt>
      <trkpt lat="45.26863" lon="3.44376">
        <ele>509.64</ele>
        <time>2021-03-28T12:45:18Z</time>
      </trkpt>
      <trkpt lat="45.26868" lon="3.44372">
        <ele>507.23</ele>
        <time>2021-03-28T12:45:25Z</time>
      </trkpt>
      <trkpt lat="45.26875" lon="3.4437">
        <ele>507.23</ele>
        <time>2021-03-28T12:45:33Z</time>
      </trkpt>
      <trkpt lat="45.2688" lon="3.44369">
        <ele>507.23</ele>
        <time>2021-03-28T12:45:38Z</time>
      </trkpt>
      <trkpt lat="45.26885" lon="3.44366">
        <ele>506.27</ele>
        <time>2021-03-28T12:45:42Z</time>
      </trkpt>
      <trkpt lat="45.26896" lon="3.44367">
        <ele>506.27</ele>
        <time>2021-03-28T12:45:51Z</time>
      </trkpt>
      <trkpt lat="45.26907" lon="3.44365">
        <ele>505.79</ele>
        <time>2021-03-28T12:45:59Z</time>
      </trkpt>
      <trkpt lat="45.26924" lon="3.44361">
        <ele>505.79</ele>
        <time>2021-03-28T12:46:10Z</time>
      </trkpt>
      <trkpt lat="45.26937" lon="3.44355">
        <ele>504.83</ele>
        <time>2021-03-28T12:46:23Z</time>
      </trkpt>
      <trkpt lat="45.26935" lon="3.44332">
        <ele>504.35</ele>
        <time>2021-03-28T12:46:36Z</time>
      </trkpt>
      <trkpt lat="45.26935" lon="3.44331">
        <ele>504.35</ele>
        <time>2021-03-28T12:46:37Z</time>
      </trkpt>
      <trkpt lat="45.26938" lon="3.44325">
        <ele>503.39</ele>
        <time>2021-03-28T12:46:43Z</time>
      </trkpt>
      <trkpt lat="45.26945" lon="3.44321">
        <ele>502.43</ele>
        <time>2021-03-28T12:46:51Z</time>
      </trkpt>
      <trkpt lat="45.26954" lon="3.44323">
        <ele>500.98</ele>
        <time>2021-03-28T12:46:58Z</time>
      </trkpt>
      <trkpt lat="45.26966" lon="3.44326">
        <ele>499.06</ele>
        <time>2021-03-28T12:47:11Z</time>
      </trkpt>
      <trkpt lat="45.26968" lon="3.44325">
        <ele>498.1</ele>
        <time>2021-03-28T12:47:13Z</time>
      </trkpt>
      <trkpt lat="45.26971" lon="3.44319">
        <ele>498.1</ele>
        <time>2021-03-28T12:47:18Z</time>
      </trkpt>
      <trkpt lat="45.26969" lon="3.44311">
        <ele>497.62</ele>
        <time>2021-03-28T12:47:24Z</time>
      </trkpt>
      <trkpt lat="45.26959" lon="3.44299">
        <ele>496.18</ele>
        <time>2021-03-28T12:47:34Z</time>
      </trkpt>
      <trkpt lat="45.26958" lon="3.44297">
        <ele>495.22</ele>
        <time>2021-03-28T12:47:37Z</time>
      </trkpt>
      <trkpt lat="45.26956" lon="3.44289">
        <ele>493.29</ele>
        <time>2021-03-28T12:47:44Z</time>
      </trkpt>
      <trkpt lat="45.26958" lon="3.44282">
        <ele>490.89</ele>
        <time>2021-03-28T12:47:50Z</time>
      </trkpt>
      <trkpt lat="45.26969" lon="3.4428">
        <ele>489.93</ele>
        <time>2021-03-28T12:47:59Z</time>
      </trkpt>
      <trkpt lat="45.26978" lon="3.44281">
        <ele>489.93</ele>
        <time>2021-03-28T12:48:09Z</time>
      </trkpt>
      <trkpt lat="45.26983" lon="3.44277">
        <ele>489.45</ele>
        <time>2021-03-28T12:48:14Z</time>
      </trkpt>
      <trkpt lat="45.26981" lon="3.44264">
        <ele>484.64</ele>
        <time>2021-03-28T12:48:25Z</time>
      </trkpt>
      <trkpt lat="45.26979" lon="3.44251">
        <ele>482.72</ele>
        <time>2021-03-28T12:48:33Z</time>
      </trkpt>
      <trkpt lat="45.2698" lon="3.44235">
        <ele>480.32</ele>
        <time>2021-03-28T12:48:44Z</time>
      </trkpt>
      <trkpt lat="45.26981" lon="3.44227">
        <ele>479.35</ele>
        <time>2021-03-28T12:48:48Z</time>
      </trkpt>
      <trkpt lat="45.26984" lon="3.44222">
        <ele>478.87</ele>
        <time>2021-03-28T12:48:52Z</time>
      </trkpt>
      <trkpt lat="45.26987" lon="3.442">
        <ele>476.95</ele>
        <time>2021-03-28T12:49:03Z</time>
      </trkpt>
      <trkpt lat="45.26988" lon="3.44199">
        <ele>476.47</ele>
        <time>2021-03-28T12:49:05Z</time>
      </trkpt>
      <trkpt lat="45.2699" lon="3.44186">
        <ele>475.99</ele>
        <time>2021-03-28T12:49:12Z</time>
      </trkpt>
      <trkpt lat="45.26993" lon="3.44173">
        <ele>475.51</ele>
        <time>2021-03-28T12:49:21Z</time>
      </trkpt>
      <trkpt lat="45.26997" lon="3.44157">
        <ele>475.51</ele>
        <time>2021-03-28T12:49:29Z</time>
      </trkpt>
      <trkpt lat="45.27" lon="3.44146">
        <ele>474.55</ele>
        <time>2021-03-28T12:49:36Z</time>
      </trkpt>
      <trkpt lat="45.27002" lon="3.44133">
        <ele>474.07</ele>
        <time>2021-03-28T12:49:43Z</time>
      </trkpt>
      <trkpt lat="45.27008" lon="3.44111">
        <ele>472.14</ele>
        <time>2021-03-28T12:49:56Z</time>
      </trkpt>
      <trkpt lat="45.27014" lon="3.44104">
        <ele>472.14</ele>
        <time>2021-03-28T12:50:06Z</time>
      </trkpt>
      <trkpt lat="45.27029" lon="3.4411">
        <ele>472.63</ele>
        <time>2021-03-28T12:50:21Z</time>
      </trkpt>
      <trkpt lat="45.27033" lon="3.44111">
        <ele>473.59</ele>
        <time>2021-03-28T12:50:26Z</time>
      </trkpt>
      <trkpt lat="45.27043" lon="3.44118">
        <ele>475.03</ele>
        <time>2021-03-28T12:50:37Z</time>
      </trkpt>
      <trkpt lat="45.27052" lon="3.44122">
        <ele>476.47</ele>
        <time>2021-03-28T12:50:48Z</time>
      </trkpt>
      <trkpt lat="45.27058" lon="3.44139">
        <ele>477.43</ele>
        <time>2021-03-28T12:51:01Z</time>
      </trkpt>
      <trkpt lat="45.27062" lon="3.44152">
        <ele>478.87</ele>
        <time>2021-03-28T12:51:13Z</time>
      </trkpt>
      <trkpt lat="45.27066" lon="3.44168">
        <ele>482.24</ele>
        <time>2021-03-28T12:51:27Z</time>
      </trkpt>
      <trkpt lat="45.27068" lon="3.44175">
        <ele>482.24</ele>
        <time>2021-03-28T12:51:32Z</time>
      </trkpt>
      <trkpt lat="45.27072" lon="3.44194">
        <ele>483.2</ele>
        <time>2021-03-28T12:51:45Z</time>
      </trkpt>
      <trkpt lat="45.27074" lon="3.44201">
        <ele>483.2</ele>
        <time>2021-03-28T12:51:49Z</time>
      </trkpt>
      <trkpt lat="45.27081" lon="3.44213">
        <ele>484.16</ele>
        <time>2021-03-28T12:52:00Z</time>
      </trkpt>
      <trkpt lat="45.27083" lon="3.44225">
        <ele>485.12</ele>
        <time>2021-03-28T12:52:12Z</time>
      </trkpt>
      <trkpt lat="45.27092" lon="3.44246">
        <ele>486.56</ele>
        <time>2021-03-28T12:52:27Z</time>
      </trkpt>
      <trkpt lat="45.27098" lon="3.44264">
        <ele>485.6</ele>
        <time>2021-03-28T12:52:43Z</time>
      </trkpt>
      <trkpt lat="45.27105" lon="3.44279">
        <ele>483.68</ele>
        <time>2021-03-28T12:52:55Z</time>
      </trkpt>
      <trkpt lat="45.27115" lon="3.44293">
        <ele>482.24</ele>
        <time>2021-03-28T12:53:06Z</time>
      </trkpt>
      <trkpt lat="45.27118" lon="3.44301">
        <ele>483.68</ele>
        <time>2021-03-28T12:53:12Z</time>
      </trkpt>
      <trkpt lat="45.27129" lon="3.44317">
        <ele>485.6</ele>
        <time>2021-03-28T12:53:25Z</time>
      </trkpt>
      <trkpt lat="45.27138" lon="3.44329">
        <ele>487.05</ele>
        <time>2021-03-28T12:53:36Z</time>
      </trkpt>
      <trkpt lat="45.27147" lon="3.44337">
        <ele>488.01</ele>
        <time>2021-03-28T12:53:45Z</time>
      </trkpt>
      <trkpt lat="45.27158" lon="3.44351">
        <ele>489.45</ele>
        <time>2021-03-28T12:53:58Z</time>
      </trkpt>
      <trkpt lat="45.27168" lon="3.44361">
        <ele>490.89</ele>
        <time>2021-03-28T12:54:09Z</time>
      </trkpt>
      <trkpt lat="45.27178" lon="3.44373">
        <ele>491.37</ele>
        <time>2021-03-28T12:54:20Z</time>
      </trkpt>
      <trkpt lat="45.27189" lon="3.44386">
        <ele>492.81</ele>
        <time>2021-03-28T12:54:33Z</time>
      </trkpt>
      <trkpt lat="45.27192" lon="3.4439">
        <ele>493.29</ele>
        <time>2021-03-28T12:54:37Z</time>
      </trkpt>
      <trkpt lat="45.27207" lon="3.44399">
        <ele>495.22</ele>
        <time>2021-03-28T12:54:50Z</time>
      </trkpt>
      <trkpt lat="45.27222" lon="3.44407">
        <ele>496.18</ele>
        <time>2021-03-28T12:55:04Z</time>
      </trkpt>
      <trkpt lat="45.27223" lon="3.44409">
        <ele>495.7</ele>
        <time>2021-03-28T12:55:06Z</time>
      </trkpt>
      <trkpt lat="45.27233" lon="3.44418">
        <ele>496.66</ele>
        <time>2021-03-28T12:55:16Z</time>
      </trkpt>
      <trkpt lat="45.27246" lon="3.44426">
        <ele>493.77</ele>
        <time>2021-03-28T12:55:30Z</time>
      </trkpt>
      <trkpt lat="45.27257" lon="3.44432">
        <ele>492.81</ele>
        <time>2021-03-28T12:55:40Z</time>
      </trkpt>
      <trkpt lat="45.2727" lon="3.44441">
        <ele>492.81</ele>
        <time>2021-03-28T12:55:54Z</time>
      </trkpt>
      <trkpt lat="45.27284" lon="3.44448">
        <ele>492.33</ele>
        <time>2021-03-28T12:56:06Z</time>
      </trkpt>
      <trkpt lat="45.27297" lon="3.44451">
        <ele>492.81</ele>
        <time>2021-03-28T12:56:17Z</time>
      </trkpt>
      <trkpt lat="45.27305" lon="3.4445">
        <ele>492.33</ele>
        <time>2021-03-28T12:56:28Z</time>
      </trkpt>
      <trkpt lat="45.27316" lon="3.44448">
        <ele>493.29</ele>
        <time>2021-03-28T12:56:37Z</time>
      </trkpt>
      <trkpt lat="45.27325" lon="3.44443">
        <ele>494.26</ele>
        <time>2021-03-28T12:56:49Z</time>
      </trkpt>
      <trkpt lat="45.2733" lon="3.4444">
        <ele>494.26</ele>
        <time>2021-03-28T12:56:55Z</time>
      </trkpt>
      <trkpt lat="45.27341" lon="3.44436">
        <ele>493.29</ele>
        <time>2021-03-28T12:57:08Z</time>
      </trkpt>
      <trkpt lat="45.27344" lon="3.44434">
        <ele>492.81</ele>
        <time>2021-03-28T12:57:13Z</time>
      </trkpt>
      <trkpt lat="45.27359" lon="3.44435">
        <ele>490.89</ele>
        <time>2021-03-28T12:57:25Z</time>
      </trkpt>
      <trkpt lat="45.2738" lon="3.44434">
        <ele>490.89</ele>
        <time>2021-03-28T12:57:38Z</time>
      </trkpt>
      <trkpt lat="45.27381" lon="3.44435">
        <ele>490.41</ele>
        <time>2021-03-28T12:57:39Z</time>
      </trkpt>
      <trkpt lat="45.27401" lon="3.44434">
        <ele>491.37</ele>
        <time>2021-03-28T12:57:54Z</time>
      </trkpt>
      <trkpt lat="45.27417" lon="3.44434">
        <ele>491.37</ele>
        <time>2021-03-28T12:58:06Z</time>
      </trkpt>
      <trkpt lat="45.2743" lon="3.44431">
        <ele>491.85</ele>
        <time>2021-03-28T12:58:20Z</time>
      </trkpt>
      <trkpt lat="45.27435" lon="3.44431">
        <ele>491.85</ele>
        <time>2021-03-28T12:58:39Z</time>
      </trkpt>
      <trkpt lat="45.27435" lon="3.44431">
        <ele>491.85</ele>
        <time>2021-03-28T12:59:00Z</time>
      </trkpt>
      <trkpt lat="45.27436" lon="3.44432">
        <ele>491.85</ele>
        <time>2021-03-28T12:59:24Z</time>
      </trkpt>
      <trkpt lat="45.27436" lon="3.44433">
        <ele>490.41</ele>
        <time>2021-03-28T12:59:46Z</time>
      </trkpt>
      <trkpt lat="45.27437" lon="3.44433">
        <ele>490.89</ele>
        <time>2021-03-28T13:00:06Z</time>
      </trkpt>
      <trkpt lat="45.27439" lon="3.44434">
        <ele>492.81</ele>
        <time>2021-03-28T13:00:32Z</time>
      </trkpt>
      <trkpt lat="45.2744" lon="3.44435">
        <ele>494.74</ele>
        <time>2021-03-28T13:00:53Z</time>
      </trkpt>
      <trkpt lat="45.27441" lon="3.44435">
        <ele>499.06</ele>
        <time>2021-03-28T13:01:15Z</time>
      </trkpt>
      <trkpt lat="45.27442" lon="3.44435">
        <ele>499.06</ele>
        <time>2021-03-28T13:01:35Z</time>
      </trkpt>
      <trkpt lat="45.27444" lon="3.44434">
        <ele>499.06</ele>
        <time>2021-03-28T13:01:50Z</time>
      </trkpt>
      <trkpt lat="45.27468" lon="3.44436">
        <ele>497.62</ele>
        <time>2021-03-28T13:02:10Z</time>
      </trkpt>
      <trkpt lat="45.27496" lon="3.44434">
        <ele>494.74</ele>
        <time>2021-03-28T13:02:34Z</time>
      </trkpt>
      <trkpt lat="45.27525" lon="3.4443">
        <ele>491.37</ele>
        <time>2021-03-28T13:02:57Z</time>
      </trkpt>
      <trkpt lat="45.27544" lon="3.44421">
        <ele>491.37</ele>
        <time>2021-03-28T13:03:11Z</time>
      </trkpt>
      <trkpt lat="45.27553" lon="3.44418">
        <ele>491.37</ele>
        <time>2021-03-28T13:03:20Z</time>
      </trkpt>
      <trkpt lat="45.2756" lon="3.44405">
        <ele>491.85</ele>
        <time>2021-03-28T13:03:31Z</time>
      </trkpt>
      <trkpt lat="45.2756" lon="3.44403">
        <ele>491.85</ele>
        <time>2021-03-28T13:03:32Z</time>
      </trkpt>
      <trkpt lat="45.27565" lon="3.44383">
        <ele>489.45</ele>
        <time>2021-03-28T13:03:46Z</time>
      </trkpt>
      <trkpt lat="45.27574" lon="3.44352">
        <ele>486.08</ele>
        <time>2021-03-28T13:04:04Z</time>
      </trkpt>
      <trkpt lat="45.27582" lon="3.44323">
        <ele>484.64</ele>
        <time>2021-03-28T13:04:21Z</time>
      </trkpt>
      <trkpt lat="45.27591" lon="3.44294">
        <ele>485.12</ele>
        <time>2021-03-28T13:04:41Z</time>
      </trkpt>
      <trkpt lat="45.276" lon="3.44264">
        <ele>484.64</ele>
        <time>2021-03-28T13:05:01Z</time>
      </trkpt>
      <trkpt lat="45.27609" lon="3.4424">
        <ele>485.6</ele>
        <time>2021-03-28T13:05:18Z</time>
      </trkpt>
      <trkpt lat="45.27618" lon="3.44215">
        <ele>486.08</ele>
        <time>2021-03-28T13:05:35Z</time>
      </trkpt>
      <trkpt lat="45.27624" lon="3.44197">
        <ele>487.53</ele>
        <time>2021-03-28T13:05:49Z</time>
      </trkpt>
      <trkpt lat="45.2763" lon="3.44184">
        <ele>488.01</ele>
        <time>2021-03-28T13:05:57Z</time>
      </trkpt>
      <trkpt lat="45.27638" lon="3.44166">
        <ele>486.56</ele>
        <time>2021-03-28T13:06:09Z</time>
      </trkpt>
      <trkpt lat="45.2764" lon="3.44162">
        <ele>486.08</ele>
        <time>2021-03-28T13:06:13Z</time>
      </trkpt>
      <trkpt lat="45.27646" lon="3.44139">
        <ele>484.16</ele>
        <time>2021-03-28T13:06:26Z</time>
      </trkpt>
      <trkpt lat="45.27648" lon="3.44137">
        <ele>483.2</ele>
        <time>2021-03-28T13:06:29Z</time>
      </trkpt>
      <trkpt lat="45.2765" lon="3.44126">
        <ele>481.76</ele>
        <time>2021-03-28T13:06:39Z</time>
      </trkpt>
      <trkpt lat="45.27656" lon="3.44112">
        <ele>480.8</ele>
        <time>2021-03-28T13:06:47Z</time>
      </trkpt>
      <trkpt lat="45.27662" lon="3.44092">
        <ele>478.87</ele>
        <time>2021-03-28T13:07:01Z</time>
      </trkpt>
      <trkpt lat="45.27664" lon="3.44073">
        <ele>478.39</ele>
        <time>2021-03-28T13:07:13Z</time>
      </trkpt>
      <trkpt lat="45.27664" lon="3.44072">
        <ele>477.91</ele>
        <time>2021-03-28T13:07:15Z</time>
      </trkpt>
      <trkpt lat="45.2767" lon="3.44047">
        <ele>477.91</ele>
        <time>2021-03-28T13:07:27Z</time>
      </trkpt>
      <trkpt lat="45.27672" lon="3.44042">
        <ele>477.91</ele>
        <time>2021-03-28T13:07:31Z</time>
      </trkpt>
      <trkpt lat="45.27677" lon="3.44024">
        <ele>478.87</ele>
        <time>2021-03-28T13:07:41Z</time>
      </trkpt>
      <trkpt lat="45.27679" lon="3.4402">
        <ele>478.87</ele>
        <time>2021-03-28T13:07:44Z</time>
      </trkpt>
      <trkpt lat="45.27684" lon="3.44">
        <ele>479.35</ele>
        <time>2021-03-28T13:07:54Z</time>
      </trkpt>
      <trkpt lat="45.27685" lon="3.43997">
        <ele>479.35</ele>
        <time>2021-03-28T13:07:56Z</time>
      </trkpt>
      <trkpt lat="45.27689" lon="3.43982">
        <ele>479.35</ele>
        <time>2021-03-28T13:08:06Z</time>
      </trkpt>
      <trkpt lat="45.27691" lon="3.43971">
        <ele>480.8</ele>
        <time>2021-03-28T13:08:14Z</time>
      </trkpt>
      <trkpt lat="45.27694" lon="3.4396">
        <ele>480.8</ele>
        <time>2021-03-28T13:08:21Z</time>
      </trkpt>
      <trkpt lat="45.27698" lon="3.43954">
        <ele>481.28</ele>
        <time>2021-03-28T13:08:26Z</time>
      </trkpt>
      <trkpt lat="45.27701" lon="3.43945">
        <ele>483.2</ele>
        <time>2021-03-28T13:08:32Z</time>
      </trkpt>
      <trkpt lat="45.27702" lon="3.43932">
        <ele>484.64</ele>
        <time>2021-03-28T13:08:38Z</time>
      </trkpt>
      <trkpt lat="45.27703" lon="3.43929">
        <ele>485.12</ele>
        <time>2021-03-28T13:08:40Z</time>
      </trkpt>
      <trkpt lat="45.27705" lon="3.4392">
        <ele>485.12</ele>
        <time>2021-03-28T13:08:44Z</time>
      </trkpt>
      <trkpt lat="45.2771" lon="3.43901">
        <ele>486.08</ele>
        <time>2021-03-28T13:08:55Z</time>
      </trkpt>
      <trkpt lat="45.27712" lon="3.43885">
        <ele>484.64</ele>
        <time>2021-03-28T13:09:05Z</time>
      </trkpt>
      <trkpt lat="45.27712" lon="3.43884">
        <ele>484.64</ele>
        <time>2021-03-28T13:09:06Z</time>
      </trkpt>
      <trkpt lat="45.27717" lon="3.43878">
        <ele>483.68</ele>
        <time>2021-03-28T13:09:12Z</time>
      </trkpt>
      <trkpt lat="45.27727" lon="3.43888">
        <ele>483.2</ele>
        <time>2021-03-28T13:09:24Z</time>
      </trkpt>
      <trkpt lat="45.27737" lon="3.43902">
        <ele>483.68</ele>
        <time>2021-03-28T13:09:35Z</time>
      </trkpt>
      <trkpt lat="45.27739" lon="3.43903">
        <ele>484.16</ele>
        <time>2021-03-28T13:09:37Z</time>
      </trkpt>
      <trkpt lat="45.27748" lon="3.43914">
        <ele>486.08</ele>
        <time>2021-03-28T13:09:47Z</time>
      </trkpt>
      <trkpt lat="45.27757" lon="3.43926">
        <ele>487.05</ele>
        <time>2021-03-28T13:09:58Z</time>
      </trkpt>
      <trkpt lat="45.27758" lon="3.43927">
        <ele>487.05</ele>
        <time>2021-03-28T13:09:59Z</time>
      </trkpt>
      <trkpt lat="45.27767" lon="3.43939">
        <ele>488.01</ele>
        <time>2021-03-28T13:10:09Z</time>
      </trkpt>
      <trkpt lat="45.27775" lon="3.43954">
        <ele>487.05</ele>
        <time>2021-03-28T13:10:21Z</time>
      </trkpt>
      <trkpt lat="45.27783" lon="3.43965">
        <ele>487.53</ele>
        <time>2021-03-28T13:10:29Z</time>
      </trkpt>
      <trkpt lat="45.27791" lon="3.43975">
        <ele>488.49</ele>
        <time>2021-03-28T13:10:38Z</time>
      </trkpt>
      <trkpt lat="45.27798" lon="3.43985">
        <ele>488.49</ele>
        <time>2021-03-28T13:10:47Z</time>
      </trkpt>
      <trkpt lat="45.27806" lon="3.43997">
        <ele>485.6</ele>
        <time>2021-03-28T13:10:57Z</time>
      </trkpt>
      <trkpt lat="45.27816" lon="3.44007">
        <ele>486.08</ele>
        <time>2021-03-28T13:11:06Z</time>
      </trkpt>
      <trkpt lat="45.27824" lon="3.44017">
        <ele>486.08</ele>
        <time>2021-03-28T13:11:15Z</time>
      </trkpt>
      <trkpt lat="45.27834" lon="3.44026">
        <ele>486.56</ele>
        <time>2021-03-28T13:11:23Z</time>
      </trkpt>
      <trkpt lat="45.2784" lon="3.44036">
        <ele>487.05</ele>
        <time>2021-03-28T13:11:31Z</time>
      </trkpt>
      <trkpt lat="45.27844" lon="3.44047">
        <ele>486.56</ele>
        <time>2021-03-28T13:11:40Z</time>
      </trkpt>
      <trkpt lat="45.2785" lon="3.4406">
        <ele>487.53</ele>
        <time>2021-03-28T13:11:48Z</time>
      </trkpt>
      <trkpt lat="45.27855" lon="3.44072">
        <ele>486.56</ele>
        <time>2021-03-28T13:11:56Z</time>
      </trkpt>
      <trkpt lat="45.2786" lon="3.44086">
        <ele>487.05</ele>
        <time>2021-03-28T13:12:04Z</time>
      </trkpt>
      <trkpt lat="45.27862" lon="3.44092">
        <ele>487.05</ele>
        <time>2021-03-28T13:12:08Z</time>
      </trkpt>
      <trkpt lat="45.27868" lon="3.44103">
        <ele>486.56</ele>
        <time>2021-03-28T13:12:18Z</time>
      </trkpt>
      <trkpt lat="45.2787" lon="3.4411">
        <ele>486.56</ele>
        <time>2021-03-28T13:12:25Z</time>
      </trkpt>
      <trkpt lat="45.27874" lon="3.44123">
        <ele>486.08</ele>
        <time>2021-03-28T13:12:33Z</time>
      </trkpt>
      <trkpt lat="45.2788" lon="3.44135">
        <ele>486.08</ele>
        <time>2021-03-28T13:12:42Z</time>
      </trkpt>
      <trkpt lat="45.27883" lon="3.4414">
        <ele>486.56</ele>
        <time>2021-03-28T13:12:46Z</time>
      </trkpt>
      <trkpt lat="45.27885" lon="3.44142">
        <ele>486.56</ele>
        <time>2021-03-28T13:12:51Z</time>
      </trkpt>
      <trkpt lat="45.27887" lon="3.44144">
        <ele>486.08</ele>
        <time>2021-03-28T13:12:54Z</time>
      </trkpt>
      <trkpt lat="45.27888" lon="3.44148">
        <ele>486.08</ele>
        <time>2021-03-28T13:13:04Z</time>
      </trkpt>
      <trkpt lat="45.27891" lon="3.44158">
        <ele>487.05</ele>
        <time>2021-03-28T13:13:12Z</time>
      </trkpt>
      <trkpt lat="45.27893" lon="3.44164">
        <ele>486.56</ele>
        <time>2021-03-28T13:13:16Z</time>
      </trkpt>
      <trkpt lat="45.27897" lon="3.44168">
        <ele>486.08</ele>
        <time>2021-03-28T13:13:21Z</time>
      </trkpt>
      <trkpt lat="45.27899" lon="3.4418">
        <ele>486.08</ele>
        <time>2021-03-28T13:13:28Z</time>
      </trkpt>
      <trkpt lat="45.27895" lon="3.44196">
        <ele>485.12</ele>
        <time>2021-03-28T13:13:37Z</time>
      </trkpt>
      <trkpt lat="45.27894" lon="3.4421">
        <ele>483.68</ele>
        <time>2021-03-28T13:13:46Z</time>
      </trkpt>
      <trkpt lat="45.27894" lon="3.4422">
        <ele>483.2</ele>
        <time>2021-03-28T13:13:53Z</time>
      </trkpt>
      <trkpt lat="45.27895" lon="3.44233">
        <ele>483.2</ele>
        <time>2021-03-28T13:14:01Z</time>
      </trkpt>
      <trkpt lat="45.27896" lon="3.44252">
        <ele>482.24</ele>
        <time>2021-03-28T13:14:11Z</time>
      </trkpt>
      <trkpt lat="45.27898" lon="3.44267">
        <ele>481.76</ele>
        <time>2021-03-28T13:14:20Z</time>
      </trkpt>
      <trkpt lat="45.279" lon="3.4428">
        <ele>481.76</ele>
        <time>2021-03-28T13:14:29Z</time>
      </trkpt>
      <trkpt lat="45.27901" lon="3.44281">
        <ele>481.76</ele>
        <time>2021-03-28T13:14:31Z</time>
      </trkpt>
      <trkpt lat="45.27902" lon="3.44288">
        <ele>482.24</ele>
        <time>2021-03-28T13:14:36Z</time>
      </trkpt>
      <trkpt lat="45.27906" lon="3.44306">
        <ele>482.72</ele>
        <time>2021-03-28T13:14:48Z</time>
      </trkpt>
      <trkpt lat="45.27907" lon="3.44323">
        <ele>482.24</ele>
        <time>2021-03-28T13:14:58Z</time>
      </trkpt>
      <trkpt lat="45.27909" lon="3.44332">
        <ele>482.24</ele>
        <time>2021-03-28T13:15:04Z</time>
      </trkpt>
      <trkpt lat="45.2791" lon="3.44348">
        <ele>481.76</ele>
        <time>2021-03-28T13:15:14Z</time>
      </trkpt>
      <trkpt lat="45.27908" lon="3.4436">
        <ele>481.28</ele>
        <time>2021-03-28T13:15:21Z</time>
      </trkpt>
      <trkpt lat="45.27905" lon="3.44367">
        <ele>481.28</ele>
        <time>2021-03-28T13:15:26Z</time>
      </trkpt>
      <trkpt lat="45.27902" lon="3.44383">
        <ele>481.28</ele>
        <time>2021-03-28T13:15:35Z</time>
      </trkpt>
      <trkpt lat="45.27901" lon="3.44386">
        <ele>480.8</ele>
        <time>2021-03-28T13:15:38Z</time>
      </trkpt>
      <trkpt lat="45.27897" lon="3.44405">
        <ele>478.87</ele>
        <time>2021-03-28T13:15:47Z</time>
      </trkpt>
      <trkpt lat="45.27896" lon="3.44421">
        <ele>478.39</ele>
        <time>2021-03-28T13:15:56Z</time>
      </trkpt>
      <trkpt lat="45.27896" lon="3.44438">
        <ele>478.39</ele>
        <time>2021-03-28T13:16:05Z</time>
      </trkpt>
      <trkpt lat="45.27895" lon="3.4445">
        <ele>478.39</ele>
        <time>2021-03-28T13:16:14Z</time>
      </trkpt>
      <trkpt lat="45.27895" lon="3.44462">
        <ele>477.91</ele>
        <time>2021-03-28T13:16:22Z</time>
      </trkpt>
      <trkpt lat="45.27895" lon="3.44465">
        <ele>477.43</ele>
        <time>2021-03-28T13:16:23Z</time>
      </trkpt>
      <trkpt lat="45.27895" lon="3.4447">
        <ele>476.47</ele>
        <time>2021-03-28T13:16:27Z</time>
      </trkpt>
      <trkpt lat="45.27893" lon="3.44489">
        <ele>475.03</ele>
        <time>2021-03-28T13:16:37Z</time>
      </trkpt>
      <trkpt lat="45.27892" lon="3.44495">
        <ele>475.51</ele>
        <time>2021-03-28T13:16:42Z</time>
      </trkpt>
      <trkpt lat="45.27891" lon="3.445">
        <ele>475.51</ele>
        <time>2021-03-28T13:16:47Z</time>
      </trkpt>
      <trkpt lat="45.27889" lon="3.44521">
        <ele>475.03</ele>
        <time>2021-03-28T13:16:57Z</time>
      </trkpt>
      <trkpt lat="45.27887" lon="3.44534">
        <ele>475.03</ele>
        <time>2021-03-28T13:17:05Z</time>
      </trkpt>
      <trkpt lat="45.27886" lon="3.44546">
        <ele>474.55</ele>
        <time>2021-03-28T13:17:14Z</time>
      </trkpt>
      <trkpt lat="45.27885" lon="3.44563">
        <ele>474.07</ele>
        <time>2021-03-28T13:17:23Z</time>
      </trkpt>
      <trkpt lat="45.27883" lon="3.44577">
        <ele>474.07</ele>
        <time>2021-03-28T13:17:31Z</time>
      </trkpt>
      <trkpt lat="45.27882" lon="3.44588">
        <ele>473.59</ele>
        <time>2021-03-28T13:17:41Z</time>
      </trkpt>
      <trkpt lat="45.27879" lon="3.44601">
        <ele>473.59</ele>
        <time>2021-03-28T13:17:50Z</time>
      </trkpt>
      <trkpt lat="45.27876" lon="3.44619">
        <ele>474.07</ele>
        <time>2021-03-28T13:18:00Z</time>
      </trkpt>
      <trkpt lat="45.27875" lon="3.4463">
        <ele>474.07</ele>
        <time>2021-03-28T13:18:08Z</time>
      </trkpt>
      <trkpt lat="45.27873" lon="3.44647">
        <ele>474.55</ele>
        <time>2021-03-28T13:18:19Z</time>
      </trkpt>
      <trkpt lat="45.27874" lon="3.44663">
        <ele>475.03</ele>
        <time>2021-03-28T13:18:28Z</time>
      </trkpt>
      <trkpt lat="45.27878" lon="3.44682">
        <ele>475.99</ele>
        <time>2021-03-28T13:18:38Z</time>
      </trkpt>
      <trkpt lat="45.27882" lon="3.44695">
        <ele>476.47</ele>
        <time>2021-03-28T13:18:48Z</time>
      </trkpt>
      <trkpt lat="45.27886" lon="3.44711">
        <ele>475.99</ele>
        <time>2021-03-28T13:18:57Z</time>
      </trkpt>
      <trkpt lat="45.27889" lon="3.4473">
        <ele>474.07</ele>
        <time>2021-03-28T13:19:09Z</time>
      </trkpt>
      <trkpt lat="45.27892" lon="3.44746">
        <ele>475.99</ele>
        <time>2021-03-28T13:19:20Z</time>
      </trkpt>
      <trkpt lat="45.27897" lon="3.44763">
        <ele>476.95</ele>
        <time>2021-03-28T13:19:32Z</time>
      </trkpt>
      <trkpt lat="45.27901" lon="3.4478">
        <ele>475.51</ele>
        <time>2021-03-28T13:19:43Z</time>
      </trkpt>
      <trkpt lat="45.27908" lon="3.448">
        <ele>475.03</ele>
        <time>2021-03-28T13:19:54Z</time>
      </trkpt>
      <trkpt lat="45.27911" lon="3.44815">
        <ele>474.07</ele>
        <time>2021-03-28T13:20:03Z</time>
      </trkpt>
      <trkpt lat="45.27911" lon="3.44816">
        <ele>474.07</ele>
        <time>2021-03-28T13:20:04Z</time>
      </trkpt>
      <trkpt lat="45.27916" lon="3.44832">
        <ele>475.99</ele>
        <time>2021-03-28T13:20:14Z</time>
      </trkpt>
      <trkpt lat="45.27918" lon="3.44841">
        <ele>476.95</ele>
        <time>2021-03-28T13:20:21Z</time>
      </trkpt>
      <trkpt lat="45.27919" lon="3.44848">
        <ele>477.43</ele>
        <time>2021-03-28T13:20:26Z</time>
      </trkpt>
      <trkpt lat="45.27922" lon="3.44858">
        <ele>478.87</ele>
        <time>2021-03-28T13:20:32Z</time>
      </trkpt>
      <trkpt lat="45.27924" lon="3.44867">
        <ele>479.35</ele>
        <time>2021-03-28T13:20:38Z</time>
      </trkpt>
      <trkpt lat="45.27926" lon="3.44876">
        <ele>479.35</ele>
        <time>2021-03-28T13:20:44Z</time>
      </trkpt>
      <trkpt lat="45.27929" lon="3.44894">
        <ele>478.87</ele>
        <time>2021-03-28T13:20:55Z</time>
      </trkpt>
      <trkpt lat="45.2793" lon="3.44896">
        <ele>478.87</ele>
        <time>2021-03-28T13:20:57Z</time>
      </trkpt>
      <trkpt lat="45.2793" lon="3.44899">
        <ele>478.87</ele>
        <time>2021-03-28T13:20:59Z</time>
      </trkpt>
      <trkpt lat="45.27931" lon="3.44917">
        <ele>479.35</ele>
        <time>2021-03-28T13:21:10Z</time>
      </trkpt>
      <trkpt lat="45.27932" lon="3.44925">
        <ele>479.35</ele>
        <time>2021-03-28T13:21:15Z</time>
      </trkpt>
      <trkpt lat="45.27933" lon="3.44936">
        <ele>478.87</ele>
        <time>2021-03-28T13:21:22Z</time>
      </trkpt>
      <trkpt lat="45.27932" lon="3.44945">
        <ele>478.87</ele>
        <time>2021-03-28T13:21:28Z</time>
      </trkpt>
      <trkpt lat="45.27931" lon="3.44967">
        <ele>478.39</ele>
        <time>2021-03-28T13:21:42Z</time>
      </trkpt>
      <trkpt lat="45.27933" lon="3.44986">
        <ele>479.84</ele>
        <time>2021-03-28T13:21:51Z</time>
      </trkpt>
      <trkpt lat="45.27931" lon="3.45001">
        <ele>481.76</ele>
        <time>2021-03-28T13:22:02Z</time>
      </trkpt>
      <trkpt lat="45.27933" lon="3.45013">
        <ele>482.72</ele>
        <time>2021-03-28T13:22:12Z</time>
      </trkpt>
      <trkpt lat="45.27936" lon="3.45028">
        <ele>481.76</ele>
        <time>2021-03-28T13:22:21Z</time>
      </trkpt>
      <trkpt lat="45.27935" lon="3.45047">
        <ele>481.28</ele>
        <time>2021-03-28T13:22:32Z</time>
      </trkpt>
      <trkpt lat="45.27937" lon="3.45065">
        <ele>482.24</ele>
        <time>2021-03-28T13:22:43Z</time>
      </trkpt>
      <trkpt lat="45.27935" lon="3.45087">
        <ele>483.68</ele>
        <time>2021-03-28T13:22:54Z</time>
      </trkpt>
      <trkpt lat="45.27935" lon="3.45099">
        <ele>484.16</ele>
        <time>2021-03-28T13:23:02Z</time>
      </trkpt>
      <trkpt lat="45.27934" lon="3.45114">
        <ele>483.68</ele>
        <time>2021-03-28T13:23:11Z</time>
      </trkpt>
      <trkpt lat="45.27934" lon="3.45127">
        <ele>482.72</ele>
        <time>2021-03-28T13:23:19Z</time>
      </trkpt>
      <trkpt lat="45.27934" lon="3.45129">
        <ele>482.72</ele>
        <time>2021-03-28T13:23:20Z</time>
      </trkpt>
      <trkpt lat="45.27936" lon="3.45145">
        <ele>481.76</ele>
        <time>2021-03-28T13:23:30Z</time>
      </trkpt>
      <trkpt lat="45.27937" lon="3.45151">
        <ele>481.76</ele>
        <time>2021-03-28T13:23:37Z</time>
      </trkpt>
      <trkpt lat="45.27937" lon="3.45153">
        <ele>481.28</ele>
        <time>2021-03-28T13:23:56Z</time>
      </trkpt>
      <trkpt lat="45.27937" lon="3.45164">
        <ele>481.76</ele>
        <time>2021-03-28T13:24:07Z</time>
      </trkpt>
      <trkpt lat="45.27938" lon="3.45179">
        <ele>480.8</ele>
        <time>2021-03-28T13:24:22Z</time>
      </trkpt>
      <trkpt lat="45.27939" lon="3.45198">
        <ele>479.35</ele>
        <time>2021-03-28T13:24:38Z</time>
      </trkpt>
      <trkpt lat="45.27941" lon="3.45224">
        <ele>480.32</ele>
        <time>2021-03-28T13:24:53Z</time>
      </trkpt>
      <trkpt lat="45.27941" lon="3.4523">
        <ele>480.8</ele>
        <time>2021-03-28T13:24:58Z</time>
      </trkpt>
      <trkpt lat="45.27941" lon="3.45245">
        <ele>480.8</ele>
        <time>2021-03-28T13:25:09Z</time>
      </trkpt>
      <trkpt lat="45.27942" lon="3.45246">
        <ele>480.8</ele>
        <time>2021-03-28T13:25:10Z</time>
      </trkpt>
      <trkpt lat="45.27942" lon="3.45268">
        <ele>481.76</ele>
        <time>2021-03-28T13:25:22Z</time>
      </trkpt>
      <trkpt lat="45.27944" lon="3.45284">
        <ele>481.76</ele>
        <time>2021-03-28T13:25:31Z</time>
      </trkpt>
      <trkpt lat="45.27947" lon="3.453">
        <ele>482.24</ele>
        <time>2021-03-28T13:25:40Z</time>
      </trkpt>
      <trkpt lat="45.27949" lon="3.45314">
        <ele>481.76</ele>
        <time>2021-03-28T13:25:49Z</time>
      </trkpt>
      <trkpt lat="45.2795" lon="3.45329">
        <ele>480.8</ele>
        <time>2021-03-28T13:25:57Z</time>
      </trkpt>
      <trkpt lat="45.27952" lon="3.45341">
        <ele>480.32</ele>
        <time>2021-03-28T13:26:05Z</time>
      </trkpt>
      <trkpt lat="45.27953" lon="3.45343">
        <ele>480.32</ele>
        <time>2021-03-28T13:26:14Z</time>
      </trkpt>
      <trkpt lat="45.27955" lon="3.45351">
        <ele>479.35</ele>
        <time>2021-03-28T13:26:20Z</time>
      </trkpt>
      <trkpt lat="45.27953" lon="3.45366">
        <ele>480.32</ele>
        <time>2021-03-28T13:26:27Z</time>
      </trkpt>
      <trkpt lat="45.27955" lon="3.45383">
        <ele>480.32</ele>
        <time>2021-03-28T13:26:35Z</time>
      </trkpt>
      <trkpt lat="45.27957" lon="3.45399">
        <ele>478.87</ele>
        <time>2021-03-28T13:26:46Z</time>
      </trkpt>
      <trkpt lat="45.2796" lon="3.45417">
        <ele>478.87</ele>
        <time>2021-03-28T13:26:55Z</time>
      </trkpt>
      <trkpt lat="45.27963" lon="3.45432">
        <ele>478.87</ele>
        <time>2021-03-28T13:27:05Z</time>
      </trkpt>
      <trkpt lat="45.27966" lon="3.45443">
        <ele>479.35</ele>
        <time>2021-03-28T13:27:14Z</time>
      </trkpt>
      <trkpt lat="45.27969" lon="3.45455">
        <ele>479.35</ele>
        <time>2021-03-28T13:27:24Z</time>
      </trkpt>
      <trkpt lat="45.27971" lon="3.45467">
        <ele>479.35</ele>
        <time>2021-03-28T13:27:34Z</time>
      </trkpt>
      <trkpt lat="45.27973" lon="3.45483">
        <ele>479.84</ele>
        <time>2021-03-28T13:27:42Z</time>
      </trkpt>
      <trkpt lat="45.27978" lon="3.45507">
        <ele>479.35</ele>
        <time>2021-03-28T13:27:53Z</time>
      </trkpt>
      <trkpt lat="45.27978" lon="3.45508">
        <ele>479.35</ele>
        <time>2021-03-28T13:27:55Z</time>
      </trkpt>
      <trkpt lat="45.27981" lon="3.45527">
        <ele>479.35</ele>
        <time>2021-03-28T13:28:05Z</time>
      </trkpt>
      <trkpt lat="45.27983" lon="3.45533">
        <ele>479.84</ele>
        <time>2021-03-28T13:28:12Z</time>
      </trkpt>
      <trkpt lat="45.27984" lon="3.45539">
        <ele>479.35</ele>
        <time>2021-03-28T13:28:25Z</time>
      </trkpt>
      <trkpt lat="45.27984" lon="3.45539">
        <ele>479.35</ele>
        <time>2021-03-28T13:28:31Z</time>
      </trkpt>
      <trkpt lat="45.27986" lon="3.45544">
        <ele>480.8</ele>
        <time>2021-03-28T13:28:36Z</time>
      </trkpt>
      <trkpt lat="45.27989" lon="3.45557">
        <ele>482.24</ele>
        <time>2021-03-28T13:28:44Z</time>
      </trkpt>
      <trkpt lat="45.27994" lon="3.45569">
        <ele>482.24</ele>
        <time>2021-03-28T13:28:52Z</time>
      </trkpt>
      <trkpt lat="45.27997" lon="3.4557">
        <ele>482.72</ele>
        <time>2021-03-28T13:28:55Z</time>
      </trkpt>
      <trkpt lat="45.27998" lon="3.45569">
        <ele>482.24</ele>
        <time>2021-03-28T13:28:58Z</time>
      </trkpt>
      <trkpt lat="45.28001" lon="3.45567">
        <ele>482.72</ele>
        <time>2021-03-28T13:29:11Z</time>
      </trkpt>
      <trkpt lat="45.28001" lon="3.45567">
        <ele>482.24</ele>
        <time>2021-03-28T13:29:12Z</time>
      </trkpt>
      <trkpt lat="45.28007" lon="3.4556">
        <ele>481.76</ele>
        <time>2021-03-28T13:29:20Z</time>
      </trkpt>
      <trkpt lat="45.28014" lon="3.45553">
        <ele>482.24</ele>
        <time>2021-03-28T13:29:31Z</time>
      </trkpt>
      <trkpt lat="45.28021" lon="3.45548">
        <ele>482.72</ele>
        <time>2021-03-28T13:29:38Z</time>
      </trkpt>
      <trkpt lat="45.28027" lon="3.45543">
        <ele>482.72</ele>
        <time>2021-03-28T13:29:42Z</time>
      </trkpt>
      <trkpt lat="45.28031" lon="3.45541">
        <ele>483.2</ele>
        <time>2021-03-28T13:29:46Z</time>
      </trkpt>
      <trkpt lat="45.28039" lon="3.45534">
        <ele>482.24</ele>
        <time>2021-03-28T13:29:56Z</time>
      </trkpt>
      <trkpt lat="45.28051" lon="3.45528">
        <ele>481.76</ele>
        <time>2021-03-28T13:30:07Z</time>
      </trkpt>
      <trkpt lat="45.28062" lon="3.4552">
        <ele>482.24</ele>
        <time>2021-03-28T13:30:20Z</time>
      </trkpt>
      <trkpt lat="45.28071" lon="3.45513">
        <ele>481.28</ele>
        <time>2021-03-28T13:30:30Z</time>
      </trkpt>
      <trkpt lat="45.28083" lon="3.455">
        <ele>481.28</ele>
        <time>2021-03-28T13:30:41Z</time>
      </trkpt>
      <trkpt lat="45.28092" lon="3.45492">
        <ele>481.76</ele>
        <time>2021-03-28T13:30:50Z</time>
      </trkpt>
      <trkpt lat="45.28093" lon="3.4549">
        <ele>481.76</ele>
        <time>2021-03-28T13:30:53Z</time>
      </trkpt>
      <trkpt lat="45.28103" lon="3.45471">
        <ele>482.24</ele>
        <time>2021-03-28T13:31:05Z</time>
      </trkpt>
      <trkpt lat="45.28104" lon="3.45465">
        <ele>482.24</ele>
        <time>2021-03-28T13:31:09Z</time>
      </trkpt>
      <trkpt lat="45.28107" lon="3.45462">
        <ele>481.76</ele>
        <time>2021-03-28T13:31:12Z</time>
      </trkpt>
      <trkpt lat="45.28111" lon="3.4546">
        <ele>481.76</ele>
        <time>2021-03-28T13:31:17Z</time>
      </trkpt>
      <trkpt lat="45.28125" lon="3.45465">
        <ele>483.2</ele>
        <time>2021-03-28T13:31:32Z</time>
      </trkpt>
      <trkpt lat="45.2813" lon="3.45466">
        <ele>484.16</ele>
        <time>2021-03-28T13:31:35Z</time>
      </trkpt>
      <trkpt lat="45.28133" lon="3.45468">
        <ele>484.64</ele>
        <time>2021-03-28T13:31:39Z</time>
      </trkpt>
      <trkpt lat="45.28147" lon="3.45479">
        <ele>482.72</ele>
        <time>2021-03-28T13:31:52Z</time>
      </trkpt>
      <trkpt lat="45.28151" lon="3.45489">
        <ele>481.28</ele>
        <time>2021-03-28T13:32:00Z</time>
      </trkpt>
      <trkpt lat="45.28156" lon="3.45497">
        <ele>480.32</ele>
        <time>2021-03-28T13:32:07Z</time>
      </trkpt>
      <trkpt lat="45.28164" lon="3.45512">
        <ele>478.39</ele>
        <time>2021-03-28T13:32:20Z</time>
      </trkpt>
      <trkpt lat="45.28172" lon="3.45526">
        <ele>477.43</ele>
        <time>2021-03-28T13:32:31Z</time>
      </trkpt>
      <trkpt lat="45.28183" lon="3.45544">
        <ele>476.95</ele>
        <time>2021-03-28T13:32:43Z</time>
      </trkpt>
      <trkpt lat="45.28191" lon="3.45558">
        <ele>477.43</ele>
        <time>2021-03-28T13:32:55Z</time>
      </trkpt>
      <trkpt lat="45.28198" lon="3.45572">
        <ele>476.47</ele>
        <time>2021-03-28T13:33:06Z</time>
      </trkpt>
      <trkpt lat="45.28207" lon="3.45587">
        <ele>476.47</ele>
        <time>2021-03-28T13:33:16Z</time>
      </trkpt>
      <trkpt lat="45.28215" lon="3.456">
        <ele>475.51</ele>
        <time>2021-03-28T13:33:27Z</time>
      </trkpt>
      <trkpt lat="45.28223" lon="3.45608">
        <ele>475.51</ele>
        <time>2021-03-28T13:33:34Z</time>
      </trkpt>
      <trkpt lat="45.2823" lon="3.45621">
        <ele>475.51</ele>
        <time>2021-03-28T13:33:43Z</time>
      </trkpt>
      <trkpt lat="45.2824" lon="3.45639">
        <ele>475.51</ele>
        <time>2021-03-28T13:33:55Z</time>
      </trkpt>
      <trkpt lat="45.28241" lon="3.45641">
        <ele>475.03</ele>
        <time>2021-03-28T13:33:57Z</time>
      </trkpt>
      <trkpt lat="45.28253" lon="3.45656">
        <ele>473.11</ele>
        <time>2021-03-28T13:34:08Z</time>
      </trkpt>
      <trkpt lat="45.28261" lon="3.45669">
        <ele>471.66</ele>
        <time>2021-03-28T13:34:19Z</time>
      </trkpt>
      <trkpt lat="45.28268" lon="3.45678">
        <ele>471.66</ele>
        <time>2021-03-28T13:34:27Z</time>
      </trkpt>
      <trkpt lat="45.28274" lon="3.45688">
        <ele>472.14</ele>
        <time>2021-03-28T13:34:35Z</time>
      </trkpt>
      <trkpt lat="45.28287" lon="3.45701">
        <ele>472.14</ele>
        <time>2021-03-28T13:34:48Z</time>
      </trkpt>
      <trkpt lat="45.28301" lon="3.4571">
        <ele>471.66</ele>
        <time>2021-03-28T13:34:59Z</time>
      </trkpt>
      <trkpt lat="45.2831" lon="3.4572">
        <ele>471.66</ele>
        <time>2021-03-28T13:35:09Z</time>
      </trkpt>
      <trkpt lat="45.28319" lon="3.45733">
        <ele>470.7</ele>
        <time>2021-03-28T13:35:20Z</time>
      </trkpt>
      <trkpt lat="45.28323" lon="3.45739">
        <ele>470.22</ele>
        <time>2021-03-28T13:35:25Z</time>
      </trkpt>
      <trkpt lat="45.28331" lon="3.45755">
        <ele>469.74</ele>
        <time>2021-03-28T13:35:36Z</time>
      </trkpt>
      <trkpt lat="45.2834" lon="3.45771">
        <ele>469.26</ele>
        <time>2021-03-28T13:35:48Z</time>
      </trkpt>
      <trkpt lat="45.28349" lon="3.45784">
        <ele>469.26</ele>
        <time>2021-03-28T13:36:00Z</time>
      </trkpt>
      <trkpt lat="45.28361" lon="3.45802">
        <ele>469.26</ele>
        <time>2021-03-28T13:36:10Z</time>
      </trkpt>
      <trkpt lat="45.28369" lon="3.45813">
        <ele>469.26</ele>
        <time>2021-03-28T13:36:19Z</time>
      </trkpt>
      <trkpt lat="45.28378" lon="3.45825">
        <ele>469.26</ele>
        <time>2021-03-28T13:36:28Z</time>
      </trkpt>
      <trkpt lat="45.28387" lon="3.45839">
        <ele>469.26</ele>
        <time>2021-03-28T13:36:39Z</time>
      </trkpt>
      <trkpt lat="45.28394" lon="3.45854">
        <ele>469.74</ele>
        <time>2021-03-28T13:36:50Z</time>
      </trkpt>
      <trkpt lat="45.28403" lon="3.45867">
        <ele>469.26</ele>
        <time>2021-03-28T13:36:59Z</time>
      </trkpt>
      <trkpt lat="45.28409" lon="3.45876">
        <ele>470.7</ele>
        <time>2021-03-28T13:37:07Z</time>
      </trkpt>
      <trkpt lat="45.28414" lon="3.45886">
        <ele>470.7</ele>
        <time>2021-03-28T13:37:15Z</time>
      </trkpt>
      <trkpt lat="45.2842" lon="3.45896">
        <ele>471.18</ele>
        <time>2021-03-28T13:37:23Z</time>
      </trkpt>
      <trkpt lat="45.28426" lon="3.45906">
        <ele>471.18</ele>
        <time>2021-03-28T13:37:32Z</time>
      </trkpt>
      <trkpt lat="45.28433" lon="3.45916">
        <ele>472.14</ele>
        <time>2021-03-28T13:37:42Z</time>
      </trkpt>
      <trkpt lat="45.28437" lon="3.45922">
        <ele>472.63</ele>
        <time>2021-03-28T13:37:56Z</time>
      </trkpt>
      <trkpt lat="45.28437" lon="3.45922">
        <ele>472.63</ele>
        <time>2021-03-28T13:37:57Z</time>
      </trkpt>
      <trkpt lat="45.28448" lon="3.45937">
        <ele>472.63</ele>
        <time>2021-03-28T13:38:09Z</time>
      </trkpt>
      <trkpt lat="45.28449" lon="3.45942">
        <ele>472.63</ele>
        <time>2021-03-28T13:38:13Z</time>
      </trkpt>
      <trkpt lat="45.28442" lon="3.45956">
        <ele>474.07</ele>
        <time>2021-03-28T13:38:28Z</time>
      </trkpt>
      <trkpt lat="45.2844" lon="3.45959">
        <ele>476.47</ele>
        <time>2021-03-28T13:38:50Z</time>
      </trkpt>
      <trkpt lat="45.2844" lon="3.4596">
        <ele>476.95</ele>
        <time>2021-03-28T13:39:07Z</time>
      </trkpt>
      <trkpt lat="45.28439" lon="3.45961">
        <ele>477.91</ele>
        <time>2021-03-28T13:39:25Z</time>
      </trkpt>
      <trkpt lat="45.28437" lon="3.45963">
        <ele>477.91</ele>
        <time>2021-03-28T13:39:27Z</time>
      </trkpt>
      <trkpt lat="45.28432" lon="3.45971">
        <ele>479.84</ele>
        <time>2021-03-28T13:39:36Z</time>
      </trkpt>
      <trkpt lat="45.28424" lon="3.45987">
        <ele>483.2</ele>
        <time>2021-03-28T13:39:50Z</time>
      </trkpt>
      <trkpt lat="45.28411" lon="3.46002">
        <ele>484.16</ele>
        <time>2021-03-28T13:40:07Z</time>
      </trkpt>
      <trkpt lat="45.28403" lon="3.46015">
        <ele>485.12</ele>
        <time>2021-03-28T13:40:17Z</time>
      </trkpt>
      <trkpt lat="45.28391" lon="3.46029">
        <ele>488.01</ele>
        <time>2021-03-28T13:40:31Z</time>
      </trkpt>
      <trkpt lat="45.28384" lon="3.46036">
        <ele>488.49</ele>
        <time>2021-03-28T13:40:39Z</time>
      </trkpt>
      <trkpt lat="45.2838" lon="3.46041">
        <ele>489.45</ele>
        <time>2021-03-28T13:40:44Z</time>
      </trkpt>
      <trkpt lat="45.28374" lon="3.46046">
        <ele>490.41</ele>
        <time>2021-03-28T13:40:50Z</time>
      </trkpt>
      <trkpt lat="45.28355" lon="3.46063">
        <ele>487.53</ele>
        <time>2021-03-28T13:41:05Z</time>
      </trkpt>
      <trkpt lat="45.28346" lon="3.46072">
        <ele>487.53</ele>
        <time>2021-03-28T13:41:14Z</time>
      </trkpt>
      <trkpt lat="45.28336" lon="3.46084">
        <ele>488.01</ele>
        <time>2021-03-28T13:41:24Z</time>
      </trkpt>
      <trkpt lat="45.28329" lon="3.46092">
        <ele>488.01</ele>
        <time>2021-03-28T13:41:33Z</time>
      </trkpt>
      <trkpt lat="45.28321" lon="3.46099">
        <ele>488.49</ele>
        <time>2021-03-28T13:41:42Z</time>
      </trkpt>
      <trkpt lat="45.28315" lon="3.46104">
        <ele>488.97</ele>
        <time>2021-03-28T13:41:47Z</time>
      </trkpt>
      <trkpt lat="45.28307" lon="3.46113">
        <ele>488.97</ele>
        <time>2021-03-28T13:41:55Z</time>
      </trkpt>
      <trkpt lat="45.28299" lon="3.46124">
        <ele>488.97</ele>
        <time>2021-03-28T13:42:05Z</time>
      </trkpt>
      <trkpt lat="45.28292" lon="3.46132">
        <ele>488.49</ele>
        <time>2021-03-28T13:42:14Z</time>
      </trkpt>
      <trkpt lat="45.28287" lon="3.46138">
        <ele>488.01</ele>
        <time>2021-03-28T13:42:21Z</time>
      </trkpt>
      <trkpt lat="45.28281" lon="3.46143">
        <ele>487.53</ele>
        <time>2021-03-28T13:42:26Z</time>
      </trkpt>
      <trkpt lat="45.2827" lon="3.46153">
        <ele>486.56</ele>
        <time>2021-03-28T13:42:36Z</time>
      </trkpt>
      <trkpt lat="45.28261" lon="3.46163">
        <ele>487.53</ele>
        <time>2021-03-28T13:42:45Z</time>
      </trkpt>
      <trkpt lat="45.28252" lon="3.4617">
        <ele>487.53</ele>
        <time>2021-03-28T13:42:53Z</time>
      </trkpt>
      <trkpt lat="45.28242" lon="3.46177">
        <ele>486.56</ele>
        <time>2021-03-28T13:43:02Z</time>
      </trkpt>
      <trkpt lat="45.28234" lon="3.46185">
        <ele>486.56</ele>
        <time>2021-03-28T13:43:10Z</time>
      </trkpt>
      <trkpt lat="45.28227" lon="3.46192">
        <ele>486.56</ele>
        <time>2021-03-28T13:43:17Z</time>
      </trkpt>
      <trkpt lat="45.28216" lon="3.46204">
        <ele>486.56</ele>
        <time>2021-03-28T13:43:27Z</time>
      </trkpt>
      <trkpt lat="45.28209" lon="3.46213">
        <ele>486.08</ele>
        <time>2021-03-28T13:43:36Z</time>
      </trkpt>
      <trkpt lat="45.28201" lon="3.46222">
        <ele>486.56</ele>
        <time>2021-03-28T13:43:44Z</time>
      </trkpt>
      <trkpt lat="45.28197" lon="3.46227">
        <ele>487.05</ele>
        <time>2021-03-28T13:43:49Z</time>
      </trkpt>
      <trkpt lat="45.28187" lon="3.46241">
        <ele>488.01</ele>
        <time>2021-03-28T13:44:00Z</time>
      </trkpt>
      <trkpt lat="45.28181" lon="3.46251">
        <ele>488.97</ele>
        <time>2021-03-28T13:44:09Z</time>
      </trkpt>
      <trkpt lat="45.2818" lon="3.46253">
        <ele>489.45</ele>
        <time>2021-03-28T13:44:11Z</time>
      </trkpt>
      <trkpt lat="45.28172" lon="3.46266">
        <ele>488.97</ele>
        <time>2021-03-28T13:44:21Z</time>
      </trkpt>
      <trkpt lat="45.28165" lon="3.46279">
        <ele>488.49</ele>
        <time>2021-03-28T13:44:30Z</time>
      </trkpt>
      <trkpt lat="45.28159" lon="3.46287">
        <ele>487.53</ele>
        <time>2021-03-28T13:44:38Z</time>
      </trkpt>
      <trkpt lat="45.28153" lon="3.46297">
        <ele>487.05</ele>
        <time>2021-03-28T13:44:48Z</time>
      </trkpt>
      <trkpt lat="45.28151" lon="3.46301">
        <ele>487.05</ele>
        <time>2021-03-28T13:44:57Z</time>
      </trkpt>
      <trkpt lat="45.28149" lon="3.46302">
        <ele>487.53</ele>
        <time>2021-03-28T13:44:59Z</time>
      </trkpt>
      <trkpt lat="45.28139" lon="3.46318">
        <ele>488.01</ele>
        <time>2021-03-28T13:45:10Z</time>
      </trkpt>
      <trkpt lat="45.28132" lon="3.46331">
        <ele>487.53</ele>
        <time>2021-03-28T13:45:20Z</time>
      </trkpt>
      <trkpt lat="45.28128" lon="3.46339">
        <ele>488.01</ele>
        <time>2021-03-28T13:45:27Z</time>
      </trkpt>
      <trkpt lat="45.28127" lon="3.46344">
        <ele>487.53</ele>
        <time>2021-03-28T13:45:33Z</time>
      </trkpt>
      <trkpt lat="45.28118" lon="3.4636">
        <ele>486.56</ele>
        <time>2021-03-28T13:45:42Z</time>
      </trkpt>
      <trkpt lat="45.28113" lon="3.46372">
        <ele>487.53</ele>
        <time>2021-03-28T13:45:50Z</time>
      </trkpt>
      <trkpt lat="45.28113" lon="3.46373">
        <ele>487.53</ele>
        <time>2021-03-28T13:45:51Z</time>
      </trkpt>
      <trkpt lat="45.28105" lon="3.46392">
        <ele>488.97</ele>
        <time>2021-03-28T13:46:02Z</time>
      </trkpt>
      <trkpt lat="45.28101" lon="3.46405">
        <ele>488.49</ele>
        <time>2021-03-28T13:46:12Z</time>
      </trkpt>
      <trkpt lat="45.28097" lon="3.4642">
        <ele>488.49</ele>
        <time>2021-03-28T13:46:21Z</time>
      </trkpt>
      <trkpt lat="45.28091" lon="3.46443">
        <ele>488.49</ele>
        <time>2021-03-28T13:46:36Z</time>
      </trkpt>
      <trkpt lat="45.2809" lon="3.46446">
        <ele>488.49</ele>
        <time>2021-03-28T13:46:40Z</time>
      </trkpt>
      <trkpt lat="45.28088" lon="3.46446">
        <ele>488.01</ele>
        <time>2021-03-28T13:46:44Z</time>
      </trkpt>
      <trkpt lat="45.28082" lon="3.46448">
        <ele>487.05</ele>
        <time>2021-03-28T13:46:50Z</time>
      </trkpt>
      <trkpt lat="45.28069" lon="3.46456">
        <ele>487.05</ele>
        <time>2021-03-28T13:47:02Z</time>
      </trkpt>
      <trkpt lat="45.28057" lon="3.46464">
        <ele>488.49</ele>
        <time>2021-03-28T13:47:12Z</time>
      </trkpt>
      <trkpt lat="45.28042" lon="3.46474">
        <ele>488.97</ele>
        <time>2021-03-28T13:47:25Z</time>
      </trkpt>
      <trkpt lat="45.28021" lon="3.46485">
        <ele>489.93</ele>
        <time>2021-03-28T13:47:43Z</time>
      </trkpt>
      <trkpt lat="45.28003" lon="3.46497">
        <ele>491.37</ele>
        <time>2021-03-28T13:48:00Z</time>
      </trkpt>
      <trkpt lat="45.27994" lon="3.46504">
        <ele>490.89</ele>
        <time>2021-03-28T13:48:10Z</time>
      </trkpt>
      <trkpt lat="45.2799" lon="3.46507">
        <ele>490.89</ele>
        <time>2021-03-28T13:48:13Z</time>
      </trkpt>
      <trkpt lat="45.27982" lon="3.46514">
        <ele>490.41</ele>
        <time>2021-03-28T13:48:24Z</time>
      </trkpt>
      <trkpt lat="45.27972" lon="3.46524">
        <ele>491.85</ele>
        <time>2021-03-28T13:48:33Z</time>
      </trkpt>
      <trkpt lat="45.27959" lon="3.46534">
        <ele>492.33</ele>
        <time>2021-03-28T13:48:45Z</time>
      </trkpt>
      <trkpt lat="45.27957" lon="3.46536">
        <ele>492.33</ele>
        <time>2021-03-28T13:48:47Z</time>
      </trkpt>
      <trkpt lat="45.27942" lon="3.46539">
        <ele>492.81</ele>
        <time>2021-03-28T13:48:58Z</time>
      </trkpt>
      <trkpt lat="45.27933" lon="3.46538">
        <ele>492.33</ele>
        <time>2021-03-28T13:49:07Z</time>
      </trkpt>
      <trkpt lat="45.27923" lon="3.46534">
        <ele>492.33</ele>
        <time>2021-03-28T13:49:14Z</time>
      </trkpt>
      <trkpt lat="45.27917" lon="3.46533">
        <ele>492.33</ele>
        <time>2021-03-28T13:49:20Z</time>
      </trkpt>
      <trkpt lat="45.27904" lon="3.46537">
        <ele>492.33</ele>
        <time>2021-03-28T13:49:32Z</time>
      </trkpt>
      <trkpt lat="45.27903" lon="3.46538">
        <ele>492.33</ele>
        <time>2021-03-28T13:49:33Z</time>
      </trkpt>
      <trkpt lat="45.27889" lon="3.46545">
        <ele>491.85</ele>
        <time>2021-03-28T13:49:43Z</time>
      </trkpt>
      <trkpt lat="45.27886" lon="3.46546">
        <ele>491.85</ele>
        <time>2021-03-28T13:49:46Z</time>
      </trkpt>
      <trkpt lat="45.27874" lon="3.46551">
        <ele>492.33</ele>
        <time>2021-03-28T13:49:58Z</time>
      </trkpt>
      <trkpt lat="45.27871" lon="3.46553">
        <ele>492.81</ele>
        <time>2021-03-28T13:50:04Z</time>
      </trkpt>
      <trkpt lat="45.2786" lon="3.46554">
        <ele>494.26</ele>
        <time>2021-03-28T13:50:14Z</time>
      </trkpt>
      <trkpt lat="45.27851" lon="3.46552">
        <ele>494.74</ele>
        <time>2021-03-28T13:50:23Z</time>
      </trkpt>
      <trkpt lat="45.27842" lon="3.46552">
        <ele>495.22</ele>
        <time>2021-03-28T13:50:33Z</time>
      </trkpt>
      <trkpt lat="45.27836" lon="3.46553">
        <ele>496.18</ele>
        <time>2021-03-28T13:50:38Z</time>
      </trkpt>
      <trkpt lat="45.27827" lon="3.46552">
        <ele>497.62</ele>
        <time>2021-03-28T13:50:47Z</time>
      </trkpt>
      <trkpt lat="45.27816" lon="3.46552">
        <ele>497.62</ele>
        <time>2021-03-28T13:50:57Z</time>
      </trkpt>
      <trkpt lat="45.27813" lon="3.46551">
        <ele>497.62</ele>
        <time>2021-03-28T13:51:00Z</time>
      </trkpt>
      <trkpt lat="45.27804" lon="3.46552">
        <ele>497.14</ele>
        <time>2021-03-28T13:51:09Z</time>
      </trkpt>
      <trkpt lat="45.27792" lon="3.46561">
        <ele>500.02</ele>
        <time>2021-03-28T13:51:21Z</time>
      </trkpt>
      <trkpt lat="45.2778" lon="3.46571">
        <ele>501.95</ele>
        <time>2021-03-28T13:51:31Z</time>
      </trkpt>
      <trkpt lat="45.2777" lon="3.4658">
        <ele>504.83</ele>
        <time>2021-03-28T13:51:40Z</time>
      </trkpt>
      <trkpt lat="45.27762" lon="3.46591">
        <ele>506.75</ele>
        <time>2021-03-28T13:51:49Z</time>
      </trkpt>
      <trkpt lat="45.27753" lon="3.46601">
        <ele>506.75</ele>
        <time>2021-03-28T13:52:00Z</time>
      </trkpt>
      <trkpt lat="45.27744" lon="3.46615">
        <ele>507.71</ele>
        <time>2021-03-28T13:52:09Z</time>
      </trkpt>
      <trkpt lat="45.27739" lon="3.4662">
        <ele>509.64</ele>
        <time>2021-03-28T13:52:16Z</time>
      </trkpt>
      <trkpt lat="45.2773" lon="3.46627">
        <ele>512.04</ele>
        <time>2021-03-28T13:52:25Z</time>
      </trkpt>
      <trkpt lat="45.27726" lon="3.46629">
        <ele>512.52</ele>
        <time>2021-03-28T13:52:28Z</time>
      </trkpt>
      <trkpt lat="45.27713" lon="3.46631">
        <ele>513.96</ele>
        <time>2021-03-28T13:52:38Z</time>
      </trkpt>
      <trkpt lat="45.2771" lon="3.46632">
        <ele>513.96</ele>
        <time>2021-03-28T13:52:41Z</time>
      </trkpt>
      <trkpt lat="45.27697" lon="3.46635">
        <ele>513.96</ele>
        <time>2021-03-28T13:52:52Z</time>
      </trkpt>
      <trkpt lat="45.27685" lon="3.46638">
        <ele>513</ele>
        <time>2021-03-28T13:53:03Z</time>
      </trkpt>
      <trkpt lat="45.27672" lon="3.46638">
        <ele>514.92</ele>
        <time>2021-03-28T13:53:15Z</time>
      </trkpt>
      <trkpt lat="45.27658" lon="3.46637">
        <ele>516.85</ele>
        <time>2021-03-28T13:53:27Z</time>
      </trkpt>
      <trkpt lat="45.27645" lon="3.46637">
        <ele>516.37</ele>
        <time>2021-03-28T13:53:35Z</time>
      </trkpt>
      <trkpt lat="45.27642" lon="3.46636">
        <ele>515.88</ele>
        <time>2021-03-28T13:53:37Z</time>
      </trkpt>
      <trkpt lat="45.27627" lon="3.46631">
        <ele>517.33</ele>
        <time>2021-03-28T13:53:48Z</time>
      </trkpt>
      <trkpt lat="45.27616" lon="3.46633">
        <ele>517.33</ele>
        <time>2021-03-28T13:53:58Z</time>
      </trkpt>
      <trkpt lat="45.27609" lon="3.46633">
        <ele>517.33</ele>
        <time>2021-03-28T13:54:03Z</time>
      </trkpt>
      <trkpt lat="45.27595" lon="3.46638">
        <ele>517.81</ele>
        <time>2021-03-28T13:54:14Z</time>
      </trkpt>
      <trkpt lat="45.27594" lon="3.46638">
        <ele>517.81</ele>
        <time>2021-03-28T13:54:16Z</time>
      </trkpt>
      <trkpt lat="45.27585" lon="3.4664">
        <ele>518.29</ele>
        <time>2021-03-28T13:54:23Z</time>
      </trkpt>
      <trkpt lat="45.27576" lon="3.46644">
        <ele>519.25</ele>
        <time>2021-03-28T13:54:31Z</time>
      </trkpt>
      <trkpt lat="45.27571" lon="3.46646">
        <ele>519.25</ele>
        <time>2021-03-28T13:54:35Z</time>
      </trkpt>
      <trkpt lat="45.27561" lon="3.46651">
        <ele>521.17</ele>
        <time>2021-03-28T13:54:47Z</time>
      </trkpt>
      <trkpt lat="45.27548" lon="3.46657">
        <ele>527.42</ele>
        <time>2021-03-28T13:55:02Z</time>
      </trkpt>
      <trkpt lat="45.27533" lon="3.46665">
        <ele>528.86</ele>
        <time>2021-03-28T13:55:12Z</time>
      </trkpt>
      <trkpt lat="45.27522" lon="3.46671">
        <ele>528.86</ele>
        <time>2021-03-28T13:55:22Z</time>
      </trkpt>
      <trkpt lat="45.27509" lon="3.46676">
        <ele>528.86</ele>
        <time>2021-03-28T13:55:31Z</time>
      </trkpt>
      <trkpt lat="45.27495" lon="3.46679">
        <ele>527.42</ele>
        <time>2021-03-28T13:55:41Z</time>
      </trkpt>
      <trkpt lat="45.2748" lon="3.4668">
        <ele>526.94</ele>
        <time>2021-03-28T13:55:52Z</time>
      </trkpt>
      <trkpt lat="45.27468" lon="3.46679">
        <ele>527.42</ele>
        <time>2021-03-28T13:56:02Z</time>
      </trkpt>
      <trkpt lat="45.27456" lon="3.46679">
        <ele>527.9</ele>
        <time>2021-03-28T13:56:10Z</time>
      </trkpt>
      <trkpt lat="45.27441" lon="3.46678">
        <ele>528.86</ele>
        <time>2021-03-28T13:56:21Z</time>
      </trkpt>
      <trkpt lat="45.27431" lon="3.46679">
        <ele>528.86</ele>
        <time>2021-03-28T13:56:29Z</time>
      </trkpt>
      <trkpt lat="45.27417" lon="3.4668">
        <ele>528.86</ele>
        <time>2021-03-28T13:56:40Z</time>
      </trkpt>
      <trkpt lat="45.27404" lon="3.4668">
        <ele>528.38</ele>
        <time>2021-03-28T13:56:50Z</time>
      </trkpt>
      <trkpt lat="45.27394" lon="3.46683">
        <ele>527.9</ele>
        <time>2021-03-28T13:57:00Z</time>
      </trkpt>
      <trkpt lat="45.27385" lon="3.46689">
        <ele>528.38</ele>
        <time>2021-03-28T13:57:10Z</time>
      </trkpt>
      <trkpt lat="45.27383" lon="3.4669">
        <ele>528.38</ele>
        <time>2021-03-28T13:57:12Z</time>
      </trkpt>
      <trkpt lat="45.27369" lon="3.467">
        <ele>529.34</ele>
        <time>2021-03-28T13:57:24Z</time>
      </trkpt>
      <trkpt lat="45.27359" lon="3.46704">
        <ele>529.34</ele>
        <time>2021-03-28T13:57:33Z</time>
      </trkpt>
      <trkpt lat="45.27349" lon="3.46709">
        <ele>530.3</ele>
        <time>2021-03-28T13:57:43Z</time>
      </trkpt>
      <trkpt lat="45.27337" lon="3.46713">
        <ele>529.34</ele>
        <time>2021-03-28T13:57:53Z</time>
      </trkpt>
      <trkpt lat="45.27328" lon="3.46716">
        <ele>529.34</ele>
        <time>2021-03-28T13:58:03Z</time>
      </trkpt>
      <trkpt lat="45.27324" lon="3.46718">
        <ele>529.34</ele>
        <time>2021-03-28T13:58:06Z</time>
      </trkpt>
      <trkpt lat="45.27316" lon="3.46719">
        <ele>529.82</ele>
        <time>2021-03-28T13:58:13Z</time>
      </trkpt>
      <trkpt lat="45.27301" lon="3.46724">
        <ele>528.86</ele>
        <time>2021-03-28T13:58:24Z</time>
      </trkpt>
      <trkpt lat="45.27301" lon="3.46724">
        <ele>528.86</ele>
        <time>2021-03-28T13:58:26Z</time>
      </trkpt>
      <trkpt lat="45.27287" lon="3.46724">
        <ele>527.9</ele>
        <time>2021-03-28T13:58:36Z</time>
      </trkpt>
      <trkpt lat="45.27274" lon="3.46718">
        <ele>526.46</ele>
        <time>2021-03-28T13:58:45Z</time>
      </trkpt>
      <trkpt lat="45.27269" lon="3.46711">
        <ele>525.5</ele>
        <time>2021-03-28T13:58:53Z</time>
      </trkpt>
      <trkpt lat="45.27265" lon="3.467">
        <ele>525.5</ele>
        <time>2021-03-28T13:59:01Z</time>
      </trkpt>
      <trkpt lat="45.27255" lon="3.46677">
        <ele>527.42</ele>
        <time>2021-03-28T13:59:13Z</time>
      </trkpt>
      <trkpt lat="45.27249" lon="3.46665">
        <ele>528.86</ele>
        <time>2021-03-28T13:59:22Z</time>
      </trkpt>
      <trkpt lat="45.27243" lon="3.46656">
        <ele>529.34</ele>
        <time>2021-03-28T13:59:31Z</time>
      </trkpt>
      <trkpt lat="45.27234" lon="3.46645">
        <ele>529.82</ele>
        <time>2021-03-28T13:59:40Z</time>
      </trkpt>
      <trkpt lat="45.27225" lon="3.46633">
        <ele>531.27</ele>
        <time>2021-03-28T13:59:49Z</time>
      </trkpt>
      <trkpt lat="45.27217" lon="3.46623">
        <ele>531.75</ele>
        <time>2021-03-28T13:59:57Z</time>
      </trkpt>
      <trkpt lat="45.27208" lon="3.46615">
        <ele>532.23</ele>
        <time>2021-03-28T14:00:05Z</time>
      </trkpt>
      <trkpt lat="45.272" lon="3.46607">
        <ele>532.71</ele>
        <time>2021-03-28T14:00:14Z</time>
      </trkpt>
      <trkpt lat="45.27189" lon="3.466">
        <ele>533.19</ele>
        <time>2021-03-28T14:00:23Z</time>
      </trkpt>
      <trkpt lat="45.27179" lon="3.46591">
        <ele>533.19</ele>
        <time>2021-03-28T14:00:31Z</time>
      </trkpt>
      <trkpt lat="45.27168" lon="3.46584">
        <ele>532.71</ele>
        <time>2021-03-28T14:00:40Z</time>
      </trkpt>
      <trkpt lat="45.27156" lon="3.46578">
        <ele>534.15</ele>
        <time>2021-03-28T14:00:48Z</time>
      </trkpt>
      <trkpt lat="45.27148" lon="3.46573">
        <ele>534.63</ele>
        <time>2021-03-28T14:00:57Z</time>
      </trkpt>
      <trkpt lat="45.27138" lon="3.46565">
        <ele>534.63</ele>
        <time>2021-03-28T14:01:06Z</time>
      </trkpt>
      <trkpt lat="45.27125" lon="3.46555">
        <ele>535.59</ele>
        <time>2021-03-28T14:01:16Z</time>
      </trkpt>
      <trkpt lat="45.27117" lon="3.4655">
        <ele>535.59</ele>
        <time>2021-03-28T14:01:25Z</time>
      </trkpt>
      <trkpt lat="45.2711" lon="3.46545">
        <ele>536.07</ele>
        <time>2021-03-28T14:01:32Z</time>
      </trkpt>
      <trkpt lat="45.27098" lon="3.46538">
        <ele>536.07</ele>
        <time>2021-03-28T14:01:40Z</time>
      </trkpt>
      <trkpt lat="45.2709" lon="3.46531">
        <ele>536.07</ele>
        <time>2021-03-28T14:01:49Z</time>
      </trkpt>
      <trkpt lat="45.2708" lon="3.46527">
        <ele>536.55</ele>
        <time>2021-03-28T14:01:57Z</time>
      </trkpt>
      <trkpt lat="45.27073" lon="3.46525">
        <ele>535.59</ele>
        <time>2021-03-28T14:02:04Z</time>
      </trkpt>
      <trkpt lat="45.27066" lon="3.46522">
        <ele>534.63</ele>
        <time>2021-03-28T14:02:11Z</time>
      </trkpt>
      <trkpt lat="45.27061" lon="3.46516">
        <ele>534.63</ele>
        <time>2021-03-28T14:02:17Z</time>
      </trkpt>
      <trkpt lat="45.2706" lon="3.46511">
        <ele>536.07</ele>
        <time>2021-03-28T14:02:26Z</time>
      </trkpt>
      <trkpt lat="45.27058" lon="3.46513">
        <ele>537.51</ele>
        <time>2021-03-28T14:02:45Z</time>
      </trkpt>
      <trkpt lat="45.27057" lon="3.46515">
        <ele>538.96</ele>
        <time>2021-03-28T14:02:58Z</time>
      </trkpt>
      <trkpt lat="45.27057" lon="3.46508">
        <ele>539.92</ele>
        <time>2021-03-28T14:03:10Z</time>
      </trkpt>
      <trkpt lat="45.27056" lon="3.465">
        <ele>540.88</ele>
        <time>2021-03-28T14:03:21Z</time>
      </trkpt>
      <trkpt lat="45.27054" lon="3.46492">
        <ele>541.84</ele>
        <time>2021-03-28T14:03:30Z</time>
      </trkpt>
      <trkpt lat="45.27053" lon="3.46491">
        <ele>541.84</ele>
        <time>2021-03-28T14:03:33Z</time>
      </trkpt>
      <trkpt lat="45.2705" lon="3.46482">
        <ele>542.32</ele>
        <time>2021-03-28T14:03:44Z</time>
      </trkpt>
      <trkpt lat="45.27046" lon="3.46469">
        <ele>542.8</ele>
        <time>2021-03-28T14:03:53Z</time>
      </trkpt>
      <trkpt lat="45.27045" lon="3.46462">
        <ele>543.28</ele>
        <time>2021-03-28T14:04:02Z</time>
      </trkpt>
      <trkpt lat="45.27044" lon="3.46461">
        <ele>543.28</ele>
        <time>2021-03-28T14:04:04Z</time>
      </trkpt>
      <trkpt lat="45.27045" lon="3.4645">
        <ele>543.76</ele>
        <time>2021-03-28T14:04:14Z</time>
      </trkpt>
      <trkpt lat="45.27046" lon="3.46442">
        <ele>544.24</ele>
        <time>2021-03-28T14:04:21Z</time>
      </trkpt>
      <trkpt lat="45.27047" lon="3.46441">
        <ele>544.24</ele>
        <time>2021-03-28T14:04:22Z</time>
      </trkpt>
      <trkpt lat="45.27048" lon="3.46436">
        <ele>544.72</ele>
        <time>2021-03-28T14:04:30Z</time>
      </trkpt>
      <trkpt lat="45.27048" lon="3.46434">
        <ele>544.72</ele>
        <time>2021-03-28T14:04:33Z</time>
      </trkpt>
      <trkpt lat="45.27047" lon="3.46421">
        <ele>543.76</ele>
        <time>2021-03-28T14:04:43Z</time>
      </trkpt>
      <trkpt lat="45.27048" lon="3.46412">
        <ele>542.8</ele>
        <time>2021-03-28T14:04:53Z</time>
      </trkpt>
      <trkpt lat="45.27049" lon="3.46406">
        <ele>542.32</ele>
        <time>2021-03-28T14:04:57Z</time>
      </trkpt>
      <trkpt lat="45.2705" lon="3.46397">
        <ele>541.36</ele>
        <time>2021-03-28T14:05:06Z</time>
      </trkpt>
      <trkpt lat="45.27051" lon="3.46392">
        <ele>541.36</ele>
        <time>2021-03-28T14:05:10Z</time>
      </trkpt>
      <trkpt lat="45.27053" lon="3.46377">
        <ele>537.03</ele>
        <time>2021-03-28T14:05:20Z</time>
      </trkpt>
      <trkpt lat="45.2706" lon="3.46351">
        <ele>528.38</ele>
        <time>2021-03-28T14:05:39Z</time>
      </trkpt>
      <trkpt lat="45.2707" lon="3.46311">
        <ele>518.77</ele>
        <time>2021-03-28T14:06:03Z</time>
      </trkpt>
      <trkpt lat="45.27076" lon="3.4628">
        <ele>515.88</ele>
        <time>2021-03-28T14:06:25Z</time>
      </trkpt>
      <trkpt lat="45.27088" lon="3.46255">
        <ele>513</ele>
        <time>2021-03-28T14:06:45Z</time>
      </trkpt>
      <trkpt lat="45.27102" lon="3.46231">
        <ele>518.77</ele>
        <time>2021-03-28T14:07:01Z</time>
      </trkpt>
      <trkpt lat="45.27105" lon="3.46222">
        <ele>519.25</ele>
        <time>2021-03-28T14:07:10Z</time>
      </trkpt>
      <trkpt lat="45.27106" lon="3.46217">
        <ele>519.73</ele>
        <time>2021-03-28T14:07:15Z</time>
      </trkpt>
      <trkpt lat="45.27111" lon="3.46206">
        <ele>517.81</ele>
        <time>2021-03-28T14:07:25Z</time>
      </trkpt>
      <trkpt lat="45.27112" lon="3.46192">
        <ele>518.29</ele>
        <time>2021-03-28T14:07:34Z</time>
      </trkpt>
      <trkpt lat="45.2711" lon="3.46182">
        <ele>518.77</ele>
        <time>2021-03-28T14:07:42Z</time>
      </trkpt>
      <trkpt lat="45.27105" lon="3.46169">
        <ele>520.69</ele>
        <time>2021-03-28T14:07:51Z</time>
      </trkpt>
      <trkpt lat="45.27097" lon="3.46155">
        <ele>520.21</ele>
        <time>2021-03-28T14:08:00Z</time>
      </trkpt>
      <trkpt lat="45.2709" lon="3.46138">
        <ele>518.29</ele>
        <time>2021-03-28T14:08:12Z</time>
      </trkpt>
      <trkpt lat="45.27085" lon="3.46127">
        <ele>516.85</ele>
        <time>2021-03-28T14:08:20Z</time>
      </trkpt>
      <trkpt lat="45.27082" lon="3.4612">
        <ele>516.37</ele>
        <time>2021-03-28T14:08:24Z</time>
      </trkpt>
      <trkpt lat="45.27074" lon="3.46107">
        <ele>514.44</ele>
        <time>2021-03-28T14:08:35Z</time>
      </trkpt>
      <trkpt lat="45.27066" lon="3.46096">
        <ele>513</ele>
        <time>2021-03-28T14:08:44Z</time>
      </trkpt>
      <trkpt lat="45.27066" lon="3.46096">
        <ele>513</ele>
        <time>2021-03-28T14:08:45Z</time>
      </trkpt>
      <trkpt lat="45.27056" lon="3.46083">
        <ele>511.56</ele>
        <time>2021-03-28T14:08:55Z</time>
      </trkpt>
      <trkpt lat="45.27047" lon="3.46072">
        <ele>510.6</ele>
        <time>2021-03-28T14:09:03Z</time>
      </trkpt>
      <trkpt lat="45.27043" lon="3.46067">
        <ele>510.12</ele>
        <time>2021-03-28T14:09:07Z</time>
      </trkpt>
      <trkpt lat="45.2703" lon="3.46051">
        <ele>507.23</ele>
        <time>2021-03-28T14:09:20Z</time>
      </trkpt>
      <trkpt lat="45.27027" lon="3.46048">
        <ele>505.79</ele>
        <time>2021-03-28T14:09:24Z</time>
      </trkpt>
      <trkpt lat="45.27019" lon="3.46043">
        <ele>504.35</ele>
        <time>2021-03-28T14:09:31Z</time>
      </trkpt>
      <trkpt lat="45.2701" lon="3.46036">
        <ele>503.87</ele>
        <time>2021-03-28T14:09:39Z</time>
      </trkpt>
      <trkpt lat="45.27007" lon="3.46035">
        <ele>503.39</ele>
        <time>2021-03-28T14:09:43Z</time>
      </trkpt>
      <trkpt lat="45.26995" lon="3.46024">
        <ele>501.46</ele>
        <time>2021-03-28T14:09:54Z</time>
      </trkpt>
      <trkpt lat="45.26989" lon="3.46019">
        <ele>501.95</ele>
        <time>2021-03-28T14:10:00Z</time>
      </trkpt>
      <trkpt lat="45.26977" lon="3.4601">
        <ele>501.95</ele>
        <time>2021-03-28T14:10:11Z</time>
      </trkpt>
      <trkpt lat="45.26961" lon="3.45996">
        <ele>499.06</ele>
        <time>2021-03-28T14:10:23Z</time>
      </trkpt>
      <trkpt lat="45.26951" lon="3.45985">
        <ele>496.66</ele>
        <time>2021-03-28T14:10:34Z</time>
      </trkpt>
      <trkpt lat="45.26944" lon="3.45979">
        <ele>493.77</ele>
        <time>2021-03-28T14:10:41Z</time>
      </trkpt>
      <trkpt lat="45.26939" lon="3.45971">
        <ele>491.85</ele>
        <time>2021-03-28T14:10:50Z</time>
      </trkpt>
      <trkpt lat="45.26938" lon="3.45969">
        <ele>490.89</ele>
        <time>2021-03-28T14:10:53Z</time>
      </trkpt>
      <trkpt lat="45.26935" lon="3.45965">
        <ele>488.97</ele>
        <time>2021-03-28T14:11:00Z</time>
      </trkpt>
      <trkpt lat="45.26934" lon="3.45964">
        <ele>488.49</ele>
        <time>2021-03-28T14:11:04Z</time>
      </trkpt>
      <trkpt lat="45.26929" lon="3.45966">
        <ele>487.05</ele>
        <time>2021-03-28T14:11:13Z</time>
      </trkpt>
      <trkpt lat="45.26929" lon="3.45965">
        <ele>487.05</ele>
        <time>2021-03-28T14:11:15Z</time>
      </trkpt>
      <trkpt lat="45.26915" lon="3.45956">
        <ele>484.64</ele>
        <time>2021-03-28T14:11:33Z</time>
      </trkpt>
      <trkpt lat="45.26913" lon="3.45951">
        <ele>483.2</ele>
        <time>2021-03-28T14:11:45Z</time>
      </trkpt>
      <trkpt lat="45.26909" lon="3.45947">
        <ele>483.2</ele>
        <time>2021-03-28T14:12:01Z</time>
      </trkpt>
      <trkpt lat="45.2689" lon="3.45919">
        <ele>481.76</ele>
        <time>2021-03-28T14:12:23Z</time>
      </trkpt>
      <trkpt lat="45.26887" lon="3.45909">
        <ele>481.28</ele>
        <time>2021-03-28T14:12:30Z</time>
      </trkpt>
      <trkpt lat="45.2689" lon="3.45876">
        <ele>481.28</ele>
        <time>2021-03-28T14:12:52Z</time>
      </trkpt>
      <trkpt lat="45.26889" lon="3.45848">
        <ele>481.76</ele>
        <time>2021-03-28T14:13:09Z</time>
      </trkpt>
      <trkpt lat="45.26875" lon="3.45818">
        <ele>482.72</ele>
        <time>2021-03-28T14:13:30Z</time>
      </trkpt>
      <trkpt lat="45.26871" lon="3.45814">
        <ele>481.76</ele>
        <time>2021-03-28T14:13:33Z</time>
      </trkpt>
      <trkpt lat="45.26859" lon="3.45814">
        <ele>483.68</ele>
        <time>2021-03-28T14:13:45Z</time>
      </trkpt>
      <trkpt lat="45.26849" lon="3.45813">
        <ele>482.72</ele>
        <time>2021-03-28T14:13:53Z</time>
      </trkpt>
      <trkpt lat="45.26837" lon="3.45815">
        <ele>482.24</ele>
        <time>2021-03-28T14:14:02Z</time>
      </trkpt>
      <trkpt lat="45.26825" lon="3.45817">
        <ele>482.72</ele>
        <time>2021-03-28T14:14:10Z</time>
      </trkpt>
      <trkpt lat="45.26816" lon="3.45818">
        <ele>482.72</ele>
        <time>2021-03-28T14:14:19Z</time>
      </trkpt>
      <trkpt lat="45.26806" lon="3.45818">
        <ele>481.76</ele>
        <time>2021-03-28T14:14:26Z</time>
      </trkpt>
      <trkpt lat="45.26796" lon="3.45817">
        <ele>480.8</ele>
        <time>2021-03-28T14:14:32Z</time>
      </trkpt>
      <trkpt lat="45.26786" lon="3.45819">
        <ele>480.8</ele>
        <time>2021-03-28T14:14:41Z</time>
      </trkpt>
      <trkpt lat="45.26778" lon="3.45821">
        <ele>480.8</ele>
        <time>2021-03-28T14:14:48Z</time>
      </trkpt>
      <trkpt lat="45.26761" lon="3.45823">
        <ele>475.03</ele>
        <time>2021-03-28T14:15:05Z</time>
      </trkpt>
      <trkpt lat="45.26738" lon="3.45824">
        <ele>468.78</ele>
        <time>2021-03-28T14:15:23Z</time>
      </trkpt>
      <trkpt lat="45.26709" lon="3.45832">
        <ele>463.97</ele>
        <time>2021-03-28T14:15:44Z</time>
      </trkpt>
      <trkpt lat="45.26707" lon="3.45831">
        <ele>463.49</ele>
        <time>2021-03-28T14:15:46Z</time>
      </trkpt>
      <trkpt lat="45.26683" lon="3.45833">
        <ele>459.65</ele>
        <time>2021-03-28T14:16:10Z</time>
      </trkpt>
      <trkpt lat="45.26655" lon="3.45834">
        <ele>458.69</ele>
        <time>2021-03-28T14:16:29Z</time>
      </trkpt>
      <trkpt lat="45.26641" lon="3.4585">
        <ele>458.69</ele>
        <time>2021-03-28T14:16:45Z</time>
      </trkpt>
      <trkpt lat="45.26621" lon="3.45869">
        <ele>462.05</ele>
        <time>2021-03-28T14:17:03Z</time>
      </trkpt>
      <trkpt lat="45.2662" lon="3.45869">
        <ele>462.05</ele>
        <time>2021-03-28T14:17:04Z</time>
      </trkpt>
      <trkpt lat="45.26592" lon="3.45843">
        <ele>460.61</ele>
        <time>2021-03-28T14:17:27Z</time>
      </trkpt>
      <trkpt lat="45.26565" lon="3.45823">
        <ele>459.65</ele>
        <time>2021-03-28T14:17:50Z</time>
      </trkpt>
      <trkpt lat="45.2654" lon="3.45806">
        <ele>456.28</ele>
        <time>2021-03-28T14:18:12Z</time>
      </trkpt>
      <trkpt lat="45.26515" lon="3.4579">
        <ele>453.4</ele>
        <time>2021-03-28T14:18:34Z</time>
      </trkpt>
      <trkpt lat="45.26496" lon="3.4577">
        <ele>452.92</ele>
        <time>2021-03-28T14:18:54Z</time>
      </trkpt>
      <trkpt lat="45.26483" lon="3.45738">
        <ele>452.92</ele>
        <time>2021-03-28T14:19:15Z</time>
      </trkpt>
      <trkpt lat="45.26459" lon="3.45721">
        <ele>453.88</ele>
        <time>2021-03-28T14:19:37Z</time>
      </trkpt>
      <trkpt lat="45.2644" lon="3.45717">
        <ele>453.88</ele>
        <time>2021-03-28T14:19:56Z</time>
      </trkpt>
      <trkpt lat="45.2641" lon="3.45703">
        <ele>453.4</ele>
        <time>2021-03-28T14:20:20Z</time>
      </trkpt>
      <trkpt lat="45.26387" lon="3.45688">
        <ele>456.76</ele>
        <time>2021-03-28T14:20:39Z</time>
      </trkpt>
      <trkpt lat="45.26381" lon="3.45692">
        <ele>456.28</ele>
        <time>2021-03-28T14:20:45Z</time>
      </trkpt>
      <trkpt lat="45.26379" lon="3.45706">
        <ele>469.74</ele>
        <time>2021-03-28T14:20:52Z</time>
      </trkpt>
      <trkpt lat="45.26376" lon="3.45713">
        <ele>470.7</ele>
        <time>2021-03-28T14:20:57Z</time>
      </trkpt>
      <trkpt lat="45.26377" lon="3.45726">
        <ele>469.26</ele>
        <time>2021-03-28T14:21:08Z</time>
      </trkpt>
      <trkpt lat="45.26379" lon="3.45734">
        <ele>469.74</ele>
        <time>2021-03-28T14:21:19Z</time>
      </trkpt>
      <trkpt lat="45.26381" lon="3.45739">
        <ele>467.82</ele>
        <time>2021-03-28T14:21:25Z</time>
      </trkpt>
      <trkpt lat="45.26383" lon="3.45748">
        <ele>468.3</ele>
        <time>2021-03-28T14:21:32Z</time>
      </trkpt>
      <trkpt lat="45.26383" lon="3.4576">
        <ele>465.9</ele>
        <time>2021-03-28T14:21:41Z</time>
      </trkpt>
      <trkpt lat="45.26384" lon="3.45766">
        <ele>468.3</ele>
        <time>2021-03-28T14:21:52Z</time>
      </trkpt>
      <trkpt lat="45.26385" lon="3.45767">
        <ele>469.74</ele>
        <time>2021-03-28T14:22:11Z</time>
      </trkpt>
      <trkpt lat="45.26385" lon="3.45766">
        <ele>469.74</ele>
        <time>2021-03-28T14:22:31Z</time>
      </trkpt>
    </trkseg>
  </trk>
</gpx>